Darstellungsparameter: Aktuell verwendete Einstellungen:
Skalierung der Graphiken ... ?
xyx+y,   Skalierungsfaktor:      Skalierung: Modus: x, Faktor: 1
Darstellungszeitraum ... ?
Vom - - bis: - -   Zeitraum: 08.10.2021 - 14.10.2021
Min/Max/Avg-Anzeige ... ?
Zeige MMA aktuell
Zeige MMA Monat
Zeige MMA alles
Zeige --A aktuell
Zeige --A Monat
Zeige --A alles
Keine MMA-Anzeige
MMA:
Keine MMA-Graphiken
MMA-Basis: 08.10.2021 - 14.10.2021
Quicknavigation für Darstellung... ?
Tage:      1T, 2T, 3T, 5T -1T -2T -3T -5T +1T +2T +3T +5T
Wochen: 1W, 2W, 3W -1W -2W -3W +1W +2W +3W
Monate: 1M, 3M, 6M -1M -3M -6M +1M +3M +6M
Jahre:    1J, 3J, 5J, 10J -1J -3J -5J -10J +1J +3J +5J +10J
Nutze für die Darstellung ... ?
Originaldaten oder Mittelwerte auf ...
Stundenbasis Tagesbasis Wochenbasis
Monatsbasis Jahresbasis      Datenbasis: Original-Daten
Darstellen als:
Statistik (Auto) Statistik J:M      Darstellung:
Zur Graphik,    zurück zur Übersicht aller Sensoren.
 
Tabellarische Datenbersicht: ?
 
Sensor: Nr:Datum:Temp:Feuchte:Taupunkt:
Aussen-T/F 1 08-10-2021 00:00:00 8 C 94 % 7.09 C
2 08-10-2021 00:05:00 7.9 C 95 % 7.15 C
3 08-10-2021 00:10:00 7.9 C 95 % 7.15 C
4 08-10-2021 00:15:00 7.9 C 95 % 7.15 C
5 08-10-2021 00:20:00 7.8 C 94 % 6.9 C
6 08-10-2021 00:25:00 7.8 C 94 % 6.9 C
7 08-10-2021 00:30:00 7.7 C 94 % 6.8 C
8 08-10-2021 00:35:00 7.7 C 94 % 6.8 C
9 08-10-2021 00:40:00 7.6 C 95 % 6.85 C
10 08-10-2021 00:45:00 7.6 C 95 % 6.85 C
11 08-10-2021 00:50:00 7.6 C 95 % 6.85 C
12 08-10-2021 00:55:00 7.5 C 95 % 6.75 C
13 08-10-2021 01:00:00 7.5 C 95 % 6.75 C
14 08-10-2021 01:05:00 7.4 C 95 % 6.65 C
15 08-10-2021 01:10:00 7.4 C 95 % 6.65 C
16 08-10-2021 01:15:00 7.4 C 95 % 6.65 C
17 08-10-2021 01:20:00 7.4 C 95 % 6.65 C
18 08-10-2021 01:25:00 7.3 C 95 % 6.55 C
19 08-10-2021 01:30:00 7.2 C 95 % 6.45 C
20 08-10-2021 01:35:00 7.2 C 95 % 6.45 C
21 08-10-2021 01:40:00 7.2 C 95 % 6.45 C
22 08-10-2021 01:45:00 7.1 C 95 % 6.35 C
23 08-10-2021 01:50:00 7.1 C 95 % 6.35 C
24 08-10-2021 01:55:00 7.1 C 95 % 6.35 C
25 08-10-2021 02:00:00 7.1 C 95 % 6.35 C
Sensor: Nr:Datum:Temp:Feuchte:Taupunkt:
Aussen-T/F 26 08-10-2021 02:05:00 7.2 C 95 % 6.45 C
27 08-10-2021 02:10:00 7.2 C 95 % 6.45 C
28 08-10-2021 02:15:00 7.2 C 95 % 6.45 C
29 08-10-2021 02:20:00 7.2 C 95 % 6.45 C
30 08-10-2021 02:25:00 7.3 C 95 % 6.55 C
31 08-10-2021 02:30:00 7.3 C 95 % 6.55 C
32 08-10-2021 02:35:00 7.4 C 96 % 6.8 C
33 08-10-2021 02:40:00 7.5 C 96 % 6.9 C
34 08-10-2021 02:45:00 7.7 C 96 % 7.1 C
35 08-10-2021 02:50:00 7.8 C 96 % 7.2 C
36 08-10-2021 02:55:00 7.8 C 96 % 7.2 C
37 08-10-2021 03:00:00 7.9 C 96 % 7.3 C
38 08-10-2021 03:05:00 7.9 C 96 % 7.3 C
39 08-10-2021 03:10:00 7.9 C 96 % 7.3 C
40 08-10-2021 03:15:00 8 C 96 % 7.4 C
41 08-10-2021 03:20:00 8 C 96 % 7.4 C
42 08-10-2021 03:25:00 8 C 96 % 7.4 C
43 08-10-2021 03:30:00 8.1 C 96 % 7.5 C
44 08-10-2021 03:35:00 8.1 C 96 % 7.5 C
45 08-10-2021 03:40:00 8.1 C 96 % 7.5 C
46 08-10-2021 03:45:00 8.1 C 96 % 7.5 C
47 08-10-2021 03:50:00 8.1 C 96 % 7.5 C
48 08-10-2021 03:55:00 8.1 C 96 % 7.5 C
49 08-10-2021 04:00:00 8.1 C 96 % 7.5 C
50 08-10-2021 04:05:00 8.1 C 96 % 7.5 C
Sensor: Nr:Datum:Temp:Feuchte:Taupunkt:
Aussen-T/F 51 08-10-2021 04:10:00 8.1 C 96 % 7.5 C
52 08-10-2021 04:15:00 8.1 C 96 % 7.5 C
53 08-10-2021 04:20:00 8.1 C 96 % 7.5 C
54 08-10-2021 04:25:00 8.2 C 96 % 7.6 C
55 08-10-2021 04:30:00 8.2 C 96 % 7.6 C
56 08-10-2021 04:35:00 8.2 C 96 % 7.6 C
57 08-10-2021 04:40:00 8.2 C 96 % 7.6 C
58 08-10-2021 04:45:00 8.2 C 96 % 7.6 C
59 08-10-2021 04:50:00 8.2 C 96 % 7.6 C
60 08-10-2021 04:55:00 8.2 C 96 % 7.6 C
61 08-10-2021 05:00:00 8.2 C 96 % 7.6 C
62 08-10-2021 05:05:00 8.2 C 96 % 7.6 C
63 08-10-2021 05:10:00 8.2 C 96 % 7.6 C
64 08-10-2021 05:15:00 8.1 C 96 % 7.5 C
65 08-10-2021 05:20:00 8.1 C 96 % 7.5 C
66 08-10-2021 05:25:00 8.1 C 96 % 7.5 C
67 08-10-2021 05:30:00 8.1 C 96 % 7.5 C
68 08-10-2021 05:35:00 8.1 C 96 % 7.5 C
69 08-10-2021 05:40:00 8.1 C 96 % 7.5 C
70 08-10-2021 05:45:00 8.1 C 96 % 7.5 C
71 08-10-2021 05:50:00 8.1 C 96 % 7.5 C
72 08-10-2021 05:55:00 8.1 C 96 % 7.5 C
73 08-10-2021 06:00:00 8.1 C 96 % 7.5 C
74 08-10-2021 06:05:00 8.1 C 96 % 7.5 C
75 08-10-2021 06:10:00 8 C 96 % 7.4 C
Sensor: Nr:Datum:Temp:Feuchte:Taupunkt:
Aussen-T/F 76 08-10-2021 06:15:00 8 C 96 % 7.4 C
77 08-10-2021 06:20:00 8 C 97 % 7.55 C
78 08-10-2021 06:25:00 8 C 97 % 7.55 C
79 08-10-2021 06:30:00 8 C 97 % 7.55 C
80 08-10-2021 06:35:00 8 C 97 % 7.55 C
81 08-10-2021 06:40:00 7.9 C 97 % 7.45 C
82 08-10-2021 06:45:00 7.9 C 97 % 7.45 C
83 08-10-2021 06:50:00 8 C 97 % 7.55 C
84 08-10-2021 06:55:00 7.9 C 97 % 7.45 C
85 08-10-2021 07:00:00 7.9 C 97 % 7.45 C
86 08-10-2021 07:05:00 8 C 97 % 7.55 C
87 08-10-2021 07:10:00 8 C 97 % 7.55 C
88 08-10-2021 07:15:00 8 C 96 % 7.4 C
89 08-10-2021 07:20:00 7.9 C 97 % 7.45 C
90 08-10-2021 07:25:00 7.9 C 97 % 7.45 C
91 08-10-2021 07:30:00 7.9 C 96 % 7.3 C
92 08-10-2021 07:35:00 7.9 C 96 % 7.3 C
93 08-10-2021 07:40:00 7.9 C 96 % 7.3 C
94 08-10-2021 07:45:00 7.9 C 96 % 7.3 C
95 08-10-2021 07:50:00 7.9 C 96 % 7.3 C
96 08-10-2021 07:55:00 7.9 C 96 % 7.3 C
97 08-10-2021 08:00:00 7.9 C 97 % 7.45 C
98 08-10-2021 08:05:00 7.9 C 97 % 7.45 C
99 08-10-2021 08:10:00 7.9 C 97 % 7.45 C
100 08-10-2021 08:15:00 8 C 97 % 7.55 C
Sensor: Nr:Datum:Temp:Feuchte:Taupunkt:
Aussen-T/F 101 08-10-2021 08:20:00 8.1 C 97 % 7.65 C
102 08-10-2021 08:25:00 8.1 C 97 % 7.65 C
103 08-10-2021 08:30:00 8.1 C 97 % 7.65 C
104 08-10-2021 08:35:00 8.1 C 97 % 7.65 C
105 08-10-2021 08:40:00 8.1 C 97 % 7.65 C
106 08-10-2021 08:45:00 8.1 C 97 % 7.65 C
107 08-10-2021 08:50:00 8.2 C 97 % 7.75 C
108 08-10-2021 08:55:00 8.2 C 97 % 7.75 C
109 08-10-2021 09:00:00 8.3 C 97 % 7.85 C
110 08-10-2021 09:05:00 8.3 C 97 % 7.85 C
111 08-10-2021 09:10:00 8.4 C 97 % 7.95 C
112 08-10-2021 09:15:00 8.4 C 97 % 7.95 C
113 08-10-2021 09:20:00 8.4 C 97 % 7.95 C
114 08-10-2021 09:25:00 8.4 C 97 % 7.95 C
115 08-10-2021 09:30:00 8.5 C 97 % 8.05 C
116 08-10-2021 09:35:00 8.6 C 97 % 8.15 C
117 08-10-2021 09:40:00 8.6 C 97 % 8.15 C
118 08-10-2021 09:45:00 8.6 C 97 % 8.15 C
119 08-10-2021 09:50:00 8.6 C 97 % 8.15 C
120 08-10-2021 09:55:00 8.6 C 97 % 8.15 C
121 08-10-2021 10:00:00 8.8 C 97 % 8.35 C
122 08-10-2021 10:05:00 8.9 C 97 % 8.45 C
123 08-10-2021 10:10:00 8.9 C 97 % 8.45 C
124 08-10-2021 10:15:00 8.9 C 97 % 8.45 C
125 08-10-2021 10:20:00 8.9 C 97 % 8.45 C
Sensor: Nr:Datum:Temp:Feuchte:Taupunkt:
Aussen-T/F 126 08-10-2021 10:25:00 8.9 C 97 % 8.45 C
127 08-10-2021 10:30:00 8.8 C 97 % 8.35 C
128 08-10-2021 10:35:00 8.8 C 97 % 8.35 C
129 08-10-2021 10:40:00 8.9 C 97 % 8.45 C
130 08-10-2021 10:45:00 8.9 C 97 % 8.45 C
131 08-10-2021 10:50:00 8.8 C 97 % 8.35 C
132 08-10-2021 10:55:00 8.9 C 97 % 8.45 C
133 08-10-2021 11:00:00 8.9 C 97 % 8.45 C
134 08-10-2021 11:05:00 8.9 C 97 % 8.45 C
135 08-10-2021 11:10:00 9.1 C 97 % 8.65 C
136 08-10-2021 11:15:00 9.2 C 97 % 8.75 C
137 08-10-2021 11:20:00 9.2 C 97 % 8.75 C
138 08-10-2021 11:25:00 9.2 C 97 % 8.75 C
139 08-10-2021 11:30:00 9.3 C 97 % 8.85 C
140 08-10-2021 11:35:00 9.3 C 97 % 8.85 C
141 08-10-2021 11:40:00 9.3 C 97 % 8.85 C
142 08-10-2021 11:45:00 9.3 C 97 % 8.85 C
143 08-10-2021 11:50:00 9.4 C 97 % 8.95 C
144 08-10-2021 11:55:00 9.6 C 97 % 9.15 C
145 08-10-2021 12:00:00 9.7 C 97 % 9.25 C
146 08-10-2021 12:05:00 9.8 C 97 % 9.35 C
147 08-10-2021 12:10:00 9.8 C 97 % 9.35 C
148 08-10-2021 12:15:00 9.8 C 97 % 9.35 C
149 08-10-2021 12:20:00 9.9 C 97 % 9.45 C
150 08-10-2021 12:25:00 10.1 C 97 % 9.65 C
Sensor: Nr:Datum:Temp:Feuchte:Taupunkt:
Aussen-T/F 151 08-10-2021 12:30:00 10.2 C 97 % 9.75 C
152 08-10-2021 12:35:00 10.3 C 97 % 9.85 C
153 08-10-2021 12:40:00 10.5 C 97 % 10.04 C
154 08-10-2021 12:45:00 10.6 C 98 % 10.3 C
155 08-10-2021 12:50:00 10.7 C 97 % 10.24 C
156 08-10-2021 12:55:00 10.8 C 97 % 10.34 C
157 08-10-2021 13:00:00 11 C 98 % 10.7 C
158 08-10-2021 13:05:00 11.1 C 97 % 10.64 C
159 08-10-2021 13:10:00 11.3 C 98 % 11 C
160 08-10-2021 13:15:00 11.4 C 97 % 10.94 C
161 08-10-2021 13:20:00 11.8 C 97 % 11.34 C
162 08-10-2021 13:25:00 12.2 C 98 % 11.89 C
163 08-10-2021 13:30:00 12.2 C 97 % 11.74 C
164 08-10-2021 13:35:00 12.2 C 97 % 11.74 C
165 08-10-2021 13:40:00 12.2 C 98 % 11.89 C
166 08-10-2021 13:45:00 12.2 C 97 % 11.74 C
167 08-10-2021 13:50:00 12.1 C 97 % 11.64 C
168 08-10-2021 13:55:00 12.2 C 97 % 11.74 C
169 08-10-2021 14:00:00 12.2 C 97 % 11.74 C
170 08-10-2021 14:05:00 12.4 C 97 % 11.94 C
171 08-10-2021 14:10:00 12.6 C 97 % 12.14 C
172 08-10-2021 14:15:00 12.8 C 97 % 12.34 C
173 08-10-2021 14:20:00 13.1 C 97 % 12.63 C
174 08-10-2021 14:25:00 13.3 C 97 % 12.83 C
175 08-10-2021 14:30:00 13.4 C 97 % 12.93 C
Sensor: Nr:Datum:Temp:Feuchte:Taupunkt:
Aussen-T/F 176 08-10-2021 14:35:00 13.8 C 97 % 13.33 C
177 08-10-2021 14:40:00 14.2 C 97 % 13.73 C
178 08-10-2021 14:45:00 14.3 C 97 % 13.83 C
179 08-10-2021 14:50:00 14.4 C 97 % 13.93 C
180 08-10-2021 14:55:00 14.5 C 96 % 13.87 C
181 08-10-2021 15:00:00 14.5 C 96 % 13.87 C
182 08-10-2021 15:05:00 14.4 C 95 % 13.61 C
183 08-10-2021 15:10:00 14.4 C 95 % 13.61 C
184 08-10-2021 15:15:00 14.4 C 92 % 13.12 C
185 08-10-2021 15:20:00 14.6 C 89 % 12.81 C
186 08-10-2021 15:25:00 15.2 C 88 % 13.23 C
187 08-10-2021 15:30:00 15.6 C 85 % 13.09 C
188 08-10-2021 15:35:00 15.9 C 82 % 12.83 C
189 08-10-2021 15:40:00 16.4 C 79 % 12.75 C
190 08-10-2021 15:45:00 16.7 C 77 % 12.65 C
191 08-10-2021 15:50:00 17 C 74 % 12.34 C
192 08-10-2021 15:55:00 17.2 C 72 % 12.11 C
193 08-10-2021 16:00:00 17.3 C 73 % 12.42 C
194 08-10-2021 16:05:00 17.3 C 72 % 12.21 C
195 08-10-2021 16:10:00 17.5 C 71 % 12.19 C
196 08-10-2021 16:15:00 17.6 C 71 % 12.28 C
197 08-10-2021 16:20:00 17.5 C 72 % 12.4 C
198 08-10-2021 16:25:00 17.5 C 75 % 13.02 C
199 08-10-2021 16:30:00 17.4 C 78 % 13.53 C
200 08-10-2021 16:35:00 17.2 C 73 % 12.32 C
Sensor: Nr:Datum:Temp:Feuchte:Taupunkt:
Aussen-T/F 201 08-10-2021 16:40:00 17.1 C 73 % 12.23 C
202 08-10-2021 16:45:00 17.1 C 72 % 12.02 C
203 08-10-2021 16:50:00 17.2 C 76 % 12.94 C
204 08-10-2021 16:55:00 17.2 C 77 % 13.14 C
205 08-10-2021 17:00:00 17.1 C 75 % 12.64 C
206 08-10-2021 17:05:00 16.9 C 78 % 13.04 C
207 08-10-2021 17:10:00 16.8 C 77 % 12.75 C
208 08-10-2021 17:15:00 16.7 C 75 % 12.25 C
209 08-10-2021 17:20:00 16.9 C 75 % 12.44 C
210 08-10-2021 17:25:00 17.1 C 74 % 12.43 C
211 08-10-2021 17:30:00 17.1 C 75 % 12.64 C
212 08-10-2021 17:35:00 17.1 C 77 % 13.04 C
213 08-10-2021 17:40:00 17.1 C 77 % 13.04 C
214 08-10-2021 17:45:00 17.1 C 76 % 12.84 C
215 08-10-2021 17:50:00 17.3 C 78 % 13.43 C
216 08-10-2021 17:55:00 17.6 C 78 % 13.72 C
217 08-10-2021 18:00:00 17.7 C 77 % 13.62 C
218 08-10-2021 18:05:00 17.7 C 76 % 13.42 C
219 08-10-2021 18:10:00 17.5 C 76 % 13.23 C
220 08-10-2021 18:15:00 17.3 C 76 % 13.03 C
221 08-10-2021 18:20:00 16.9 C 77 % 12.84 C
222 08-10-2021 18:25:00 16.5 C 78 % 12.65 C
223 08-10-2021 18:30:00 16.1 C 79 % 12.46 C
224 08-10-2021 18:35:00 15.7 C 80 % 12.26 C
225 08-10-2021 18:40:00 15.3 C 81 % 12.06 C
Sensor: Nr:Datum:Temp:Feuchte:Taupunkt:
Aussen-T/F 226 08-10-2021 18:45:00 14.8 C 81 % 11.57 C
227 08-10-2021 18:50:00 14.5 C 83 % 11.65 C
228 08-10-2021 18:55:00 14.2 C 84 % 11.54 C
229 08-10-2021 19:00:00 13.9 C 85 % 11.42 C
230 08-10-2021 19:05:00 13.7 C 85 % 11.23 C
231 08-10-2021 19:10:00 13.4 C 86 % 11.11 C
232 08-10-2021 19:15:00 13.2 C 86 % 10.91 C
233 08-10-2021 19:20:00 13.1 C 87 % 10.99 C
234 08-10-2021 19:25:00 12.9 C 87 % 10.79 C
235 08-10-2021 19:30:00 12.7 C 88 % 10.77 C
236 08-10-2021 19:35:00 12.6 C 88 % 10.67 C
237 08-10-2021 19:40:00 12.5 C 89 % 10.74 C
238 08-10-2021 19:45:00 12.4 C 89 % 10.64 C
239 08-10-2021 19:50:00 12.3 C 89 % 10.54 C
240 08-10-2021 19:55:00 12.2 C 89 % 10.44 C
241 08-10-2021 20:00:00 12.1 C 90 % 10.51 C
242 08-10-2021 20:05:00 12.1 C 90 % 10.51 C
243 08-10-2021 20:10:00 12 C 90 % 10.41 C
244 08-10-2021 20:15:00 11.9 C 90 % 10.31 C
245 08-10-2021 20:20:00 11.8 C 91 % 10.38 C
246 08-10-2021 20:25:00 11.8 C 91 % 10.38 C
247 08-10-2021 20:30:00 11.7 C 91 % 10.28 C
248 08-10-2021 20:35:00 11.7 C 91 % 10.28 C
249 08-10-2021 20:40:00 11.6 C 91 % 10.18 C
250 08-10-2021 20:45:00 11.4 C 91 % 9.98 C
Sensor: Nr:Datum:Temp:Feuchte:Taupunkt:
Aussen-T/F 251 08-10-2021 20:50:00 11.3 C 91 % 9.89 C
252 08-10-2021 20:55:00 11.2 C 91 % 9.79 C
253 08-10-2021 21:00:00 11 C 91 % 9.59 C
254 08-10-2021 21:05:00 10.9 C 91 % 9.49 C
255 08-10-2021 21:10:00 10.8 C 91 % 9.39 C
256 08-10-2021 21:15:00 10.8 C 92 % 9.55 C
257 08-10-2021 21:20:00 10.7 C 92 % 9.45 C
258 08-10-2021 21:25:00 10.7 C 92 % 9.45 C
259 08-10-2021 21:30:00 10.6 C 92 % 9.36 C
260 08-10-2021 21:35:00 10.6 C 92 % 9.36 C
261 08-10-2021 21:40:00 10.4 C 92 % 9.16 C
262 08-10-2021 21:45:00 10.4 C 92 % 9.16 C
263 08-10-2021 21:50:00 10.3 C 92 % 9.06 C
264 08-10-2021 21:55:00 10.2 C 92 % 8.96 C
265 08-10-2021 22:00:00 10.1 C 93 % 9.02 C
266 08-10-2021 22:05:00 10.1 C 93 % 9.02 C
267 08-10-2021 22:10:00 10 C 93 % 8.92 C
268 08-10-2021 22:15:00 9.9 C 93 % 8.82 C
269 08-10-2021 22:20:00 9.8 C 93 % 8.72 C
270 08-10-2021 22:25:00 9.8 C 93 % 8.72 C
271 08-10-2021 22:30:00 9.7 C 93 % 8.62 C
272 08-10-2021 22:35:00 9.6 C 93 % 8.53 C
273 08-10-2021 22:40:00 9.6 C 93 % 8.53 C
274 08-10-2021 22:45:00 9.6 C 94 % 8.68 C
275 08-10-2021 22:50:00 9.6 C 94 % 8.68 C
Sensor: Nr:Datum:Temp:Feuchte:Taupunkt:
Aussen-T/F 276 08-10-2021 22:55:00 9.6 C 94 % 8.68 C
277 08-10-2021 23:00:00 9.6 C 94 % 8.68 C
278 08-10-2021 23:05:00 9.6 C 94 % 8.68 C
279 08-10-2021 23:10:00 9.6 C 94 % 8.68 C
280 08-10-2021 23:15:00 9.5 C 94 % 8.58 C
281 08-10-2021 23:20:00 9.4 C 94 % 8.48 C
282 08-10-2021 23:25:00 9.4 C 94 % 8.48 C
283 08-10-2021 23:30:00 9.4 C 94 % 8.48 C
284 08-10-2021 23:35:00 9.3 C 94 % 8.39 C
285 08-10-2021 23:40:00 9.3 C 95 % 8.54 C
286 08-10-2021 23:45:00 9.3 C 95 % 8.54 C
287 08-10-2021 23:50:00 9.3 C 95 % 8.54 C
288 08-10-2021 23:55:00 9.2 C 95 % 8.44 C
289 09-10-2021 00:00:00 9.2 C 95 % 8.44 C
290 09-10-2021 00:05:00 9.2 C 95 % 8.44 C
291 09-10-2021 00:10:00 9.2 C 95 % 8.44 C
292 09-10-2021 00:15:00 9.2 C 95 % 8.44 C
293 09-10-2021 00:20:00 9.2 C 95 % 8.44 C
294 09-10-2021 00:25:00 9.1 C 95 % 8.34 C
295 09-10-2021 00:30:00 9.1 C 95 % 8.34 C
296 09-10-2021 00:35:00 9.1 C 95 % 8.34 C
297 09-10-2021 00:40:00 9.1 C 95 % 8.34 C
298 09-10-2021 00:45:00 9.1 C 95 % 8.34 C
299 09-10-2021 00:50:00 9.1 C 95 % 8.34 C
300 09-10-2021 00:55:00 9.1 C 95 % 8.34 C
Sensor: Nr:Datum:Temp:Feuchte:Taupunkt:
Aussen-T/F 301 09-10-2021 01:00:00 9 C 95 % 8.24 C
302 09-10-2021 01:05:00 8.9 C 95 % 8.14 C
303 09-10-2021 01:10:00 8.9 C 95 % 8.14 C
304 09-10-2021 01:15:00 8.9 C 95 % 8.14 C
305 09-10-2021 01:20:00 8.8 C 95 % 8.04 C
306 09-10-2021 01:25:00 8.8 C 95 % 8.04 C
307 09-10-2021 01:30:00 8.7 C 95 % 7.94 C
308 09-10-2021 01:35:00 8.7 C 95 % 7.94 C
309 09-10-2021 01:40:00 8.7 C 95 % 7.94 C
310 09-10-2021 01:45:00 8.7 C 95 % 7.94 C
311 09-10-2021 01:50:00 8.7 C 95 % 7.94 C
312 09-10-2021 01:55:00 8.6 C 95 % 7.85 C
313 09-10-2021 02:00:00 8.6 C 95 % 7.85 C
314 09-10-2021 02:05:00 8.5 C 95 % 7.75 C
315 09-10-2021 02:10:00 8.5 C 95 % 7.75 C
316 09-10-2021 02:15:00 8.4 C 95 % 7.65 C
317 09-10-2021 02:20:00 8.4 C 95 % 7.65 C
318 09-10-2021 02:25:00 8.3 C 95 % 7.55 C
319 09-10-2021 02:30:00 8.2 C 95 % 7.45 C
320 09-10-2021 02:35:00 8.2 C 95 % 7.45 C
321 09-10-2021 02:40:00 8.1 C 95 % 7.35 C
322 09-10-2021 02:45:00 8 C 95 % 7.25 C
323 09-10-2021 02:50:00 7.9 C 95 % 7.15 C
324 09-10-2021 02:55:00 7.8 C 95 % 7.05 C
325 09-10-2021 03:00:00 7.8 C 95 % 7.05 C
Sensor: Nr:Datum:Temp:Feuchte:Taupunkt:
Aussen-T/F 326 09-10-2021 03:05:00 7.8 C 95 % 7.05 C
327 09-10-2021 03:10:00 7.7 C 95 % 6.95 C
328 09-10-2021 03:15:00 7.7 C 95 % 6.95 C
329 09-10-2021 03:20:00 7.7 C 95 % 6.95 C
330 09-10-2021 03:25:00 7.7 C 95 % 6.95 C
331 09-10-2021 03:30:00 7.6 C 95 % 6.85 C
332 09-10-2021 03:35:00 7.5 C 95 % 6.75 C
333 09-10-2021 03:40:00 7.4 C 95 % 6.65 C
334 09-10-2021 03:45:00 7.3 C 95 % 6.55 C
335 09-10-2021 03:50:00 7.2 C 95 % 6.45 C
336 09-10-2021 03:55:00 7.2 C 95 % 6.45 C
337 09-10-2021 04:00:00 7.1 C 95 % 6.35 C
338 09-10-2021 04:05:00 7.1 C 95 % 6.35 C
339 09-10-2021 04:10:00 7.1 C 95 % 6.35 C
340 09-10-2021 04:15:00 7.1 C 96 % 6.51 C
341 09-10-2021 04:20:00 7.2 C 96 % 6.61 C
342 09-10-2021 04:25:00 7.2 C 96 % 6.61 C
343 09-10-2021 04:30:00 7.1 C 96 % 6.51 C
344 09-10-2021 04:35:00 7.1 C 95 % 6.35 C
345 09-10-2021 04:40:00 6.9 C 95 % 6.16 C
346 09-10-2021 04:45:00 6.9 C 95 % 6.16 C
347 09-10-2021 04:50:00 6.8 C 95 % 6.06 C
348 09-10-2021 04:55:00 6.7 C 95 % 5.96 C
349 09-10-2021 05:00:00 6.7 C 95 % 5.96 C
350 09-10-2021 05:05:00 6.7 C 95 % 5.96 C
Sensor: Nr:Datum:Temp:Feuchte:Taupunkt:
Aussen-T/F 351 09-10-2021 05:10:00 6.7 C 95 % 5.96 C
352 09-10-2021 05:15:00 6.7 C 95 % 5.96 C
353 09-10-2021 05:20:00 6.7 C 95 % 5.96 C
354 09-10-2021 05:25:00 6.7 C 96 % 6.11 C
355 09-10-2021 05:30:00 6.8 C 96 % 6.21 C
356 09-10-2021 05:35:00 6.9 C 96 % 6.31 C
357 09-10-2021 05:40:00 6.9 C 96 % 6.31 C
358 09-10-2021 05:45:00 6.9 C 96 % 6.31 C
359 09-10-2021 05:50:00 6.9 C 96 % 6.31 C
360 09-10-2021 05:55:00 7 C 96 % 6.41 C
361 09-10-2021 06:00:00 7 C 96 % 6.41 C
362 09-10-2021 06:05:00 7 C 96 % 6.41 C
363 09-10-2021 06:10:00 7 C 96 % 6.41 C
364 09-10-2021 06:15:00 7 C 96 % 6.41 C
365 09-10-2021 06:20:00 7 C 96 % 6.41 C
366 09-10-2021 06:25:00 6.9 C 96 % 6.31 C
367 09-10-2021 06:30:00 6.9 C 96 % 6.31 C
368 09-10-2021 06:35:00 6.8 C 96 % 6.21 C
369 09-10-2021 06:40:00 6.7 C 96 % 6.11 C
370 09-10-2021 06:45:00 6.7 C 96 % 6.11 C
371 09-10-2021 06:50:00 6.6 C 96 % 6.01 C
372 09-10-2021 06:55:00 6.5 C 96 % 5.91 C
373 09-10-2021 07:00:00 6.4 C 96 % 5.81 C
374 09-10-2021 07:05:00 6.4 C 96 % 5.81 C
375 09-10-2021 07:10:00 6.3 C 95 % 5.56 C
Sensor: Nr:Datum:Temp:Feuchte:Taupunkt:
Aussen-T/F 376 09-10-2021 07:15:00 6.1 C 95 % 5.36 C
377 09-10-2021 07:20:00 5.9 C 95 % 5.16 C
378 09-10-2021 07:25:00 5.8 C 95 % 5.06 C
379 09-10-2021 07:30:00 5.7 C 95 % 4.96 C
380 09-10-2021 07:35:00 5.6 C 95 % 4.86 C
381 09-10-2021 07:40:00 5.6 C 95 % 4.86 C
382 09-10-2021 07:45:00 5.5 C 96 % 4.91 C
383 09-10-2021 07:50:00 5.6 C 96 % 5.01 C
384 09-10-2021 07:55:00 5.6 C 96 % 5.01 C
385 09-10-2021 08:00:00 5.6 C 96 % 5.01 C
386 09-10-2021 08:05:00 5.7 C 96 % 5.11 C
387 09-10-2021 08:10:00 5.7 C 96 % 5.11 C
388 09-10-2021 08:15:00 5.8 C 96 % 5.21 C
389 09-10-2021 08:20:00 5.9 C 96 % 5.31 C
390 09-10-2021 08:25:00 6 C 96 % 5.41 C
391 09-10-2021 08:30:00 6.1 C 96 % 5.51 C
392 09-10-2021 08:35:00 6.3 C 96 % 5.71 C
393 09-10-2021 08:40:00 6.3 C 96 % 5.71 C
394 09-10-2021 08:45:00 6.4 C 96 % 5.81 C
395 09-10-2021 08:50:00 6.4 C 96 % 5.81 C
396 09-10-2021 08:55:00 6.4 C 96 % 5.81 C
397 09-10-2021 09:00:00 6.5 C 96 % 5.91 C
398 09-10-2021 09:05:00 6.5 C 96 % 5.91 C
399 09-10-2021 09:10:00 6.5 C 96 % 5.91 C
400 09-10-2021 09:15:00 6.6 C 96 % 6.01 C
Sensor: Nr:Datum:Temp:Feuchte:Taupunkt:
Aussen-T/F 401 09-10-2021 09:20:00 6.6 C 96 % 6.01 C
402 09-10-2021 09:25:00 6.7 C 97 % 6.26 C
403 09-10-2021 09:30:00 6.7 C 96 % 6.11 C
404 09-10-2021 09:35:00 6.6 C 96 % 6.01 C
405 09-10-2021 09:40:00 6.7 C 96 % 6.11 C
406 09-10-2021 09:45:00 6.7 C 97 % 6.26 C
407 09-10-2021 09:50:00 6.8 C 97 % 6.36 C
408 09-10-2021 09:55:00 6.9 C 97 % 6.46 C
409 09-10-2021 10:00:00 7.1 C 97 % 6.66 C
410 09-10-2021 10:05:00 7.1 C 97 % 6.66 C
411 09-10-2021 10:10:00 7.2 C 97 % 6.76 C
412 09-10-2021 10:15:00 7.2 C 97 % 6.76 C
413 09-10-2021 10:20:00 7.2 C 97 % 6.76 C
414 09-10-2021 10:25:00 7.2 C 97 % 6.76 C
415 09-10-2021 10:30:00 7.2 C 97 % 6.76 C
416 09-10-2021 10:35:00 7.2 C 97 % 6.76 C
417 09-10-2021 10:40:00 7.3 C 97 % 6.86 C
418 09-10-2021 10:45:00 7.4 C 97 % 6.96 C
419 09-10-2021 10:50:00 7.6 C 97 % 7.16 C
420 09-10-2021 10:55:00 7.7 C 97 % 7.25 C
421 09-10-2021 11:00:00 7.9 C 97 % 7.45 C
422 09-10-2021 11:05:00 8.2 C 97 % 7.75 C
423 09-10-2021 11:10:00 8.3 C 97 % 7.85 C
424 09-10-2021 11:15:00 8.5 C 97 % 8.05 C
425 09-10-2021 11:20:00 8.6 C 97 % 8.15 C
Sensor: Nr:Datum:Temp:Feuchte:Taupunkt:
Aussen-T/F 426 09-10-2021 11:25:00 8.7 C 97 % 8.25 C
427 09-10-2021 11:30:00 8.7 C 97 % 8.25 C
428 09-10-2021 11:35:00 8.8 C 97 % 8.35 C
429 09-10-2021 11:40:00 8.8 C 97 % 8.35 C
430 09-10-2021 11:45:00 8.9 C 97 % 8.45 C
431 09-10-2021 11:50:00 9 C 97 % 8.55 C
432 09-10-2021 11:55:00 9.2 C 97 % 8.75 C
433 09-10-2021 12:00:00 9.3 C 97 % 8.85 C
434 09-10-2021 12:05:00 9.4 C 97 % 8.95 C
435 09-10-2021 12:10:00 9.6 C 97 % 9.15 C
436 09-10-2021 12:15:00 9.7 C 97 % 9.25 C
437 09-10-2021 12:20:00 9.8 C 97 % 9.35 C
438 09-10-2021 12:25:00 9.9 C 97 % 9.45 C
439 09-10-2021 12:30:00 10.1 C 97 % 9.65 C
440 09-10-2021 12:35:00 10.2 C 97 % 9.75 C
441 09-10-2021 12:40:00 10.3 C 97 % 9.85 C
442 09-10-2021 12:45:00 10.4 C 97 % 9.94 C
443 09-10-2021 12:50:00 10.6 C 97 % 10.14 C
444 09-10-2021 12:55:00 10.7 C 97 % 10.24 C
445 09-10-2021 13:00:00 10.9 C 97 % 10.44 C
446 09-10-2021 13:05:00 11 C 97 % 10.54 C
447 09-10-2021 13:10:00 11.2 C 98 % 10.9 C
448 09-10-2021 13:15:00 11.6 C 98 % 11.29 C
449 09-10-2021 13:20:00 12 C 98 % 11.69 C
450 09-10-2021 13:25:00 12.2 C 97 % 11.74 C
Sensor: Nr:Datum:Temp:Feuchte:Taupunkt:
Aussen-T/F 451 09-10-2021 13:30:00 12.3 C 97 % 11.84 C
452 09-10-2021 13:35:00 12.3 C 97 % 11.84 C
453 09-10-2021 13:40:00 12.1 C 97 % 11.64 C
454 09-10-2021 13:45:00 12.1 C 96 % 11.48 C
455 09-10-2021 13:50:00 12.2 C 95 % 11.42 C
456 09-10-2021 13:55:00 12.2 C 95 % 11.42 C
457 09-10-2021 14:00:00 12.2 C 94 % 11.26 C
458 09-10-2021 14:05:00 12.4 C 94 % 11.46 C
459 09-10-2021 14:10:00 12.6 C 94 % 11.66 C
460 09-10-2021 14:15:00 12.7 C 94 % 11.76 C
461 09-10-2021 14:20:00 12.8 C 93 % 11.7 C
462 09-10-2021 14:25:00 12.9 C 93 % 11.8 C
463 09-10-2021 14:30:00 13.3 C 93 % 12.19 C
464 09-10-2021 14:35:00 13.6 C 89 % 11.82 C
465 09-10-2021 14:40:00 14.1 C 89 % 12.32 C
466 09-10-2021 14:45:00 14.7 C 85 % 12.21 C
467 09-10-2021 14:50:00 15.3 C 86 % 12.97 C
468 09-10-2021 14:55:00 15.6 C 85 % 13.09 C
469 09-10-2021 15:00:00 15.7 C 83 % 12.82 C
470 09-10-2021 15:05:00 15.6 C 83 % 12.72 C
471 09-10-2021 15:10:00 15.3 C 82 % 12.25 C
472 09-10-2021 15:15:00 15.2 C 82 % 12.15 C
473 09-10-2021 15:20:00 14.9 C 83 % 12.04 C
474 09-10-2021 15:25:00 14.8 C 83 % 11.94 C
475 09-10-2021 15:30:00 14.7 C 84 % 12.03 C
Sensor: Nr:Datum:Temp:Feuchte:Taupunkt:
Aussen-T/F 476 09-10-2021 15:35:00 14.6 C 84 % 11.93 C
477 09-10-2021 15:40:00 14.5 C 83 % 11.65 C
478 09-10-2021 15:45:00 14.4 C 84 % 11.73 C
479 09-10-2021 15:50:00 14.3 C 84 % 11.64 C
480 09-10-2021 15:55:00 14.3 C 85 % 11.81 C
481 09-10-2021 16:00:00 14.2 C 85 % 11.72 C
482 09-10-2021 16:05:00 14.2 C 85 % 11.72 C
483 09-10-2021 16:10:00 14.1 C 85 % 11.62 C
484 09-10-2021 16:15:00 14.1 C 85 % 11.62 C
485 09-10-2021 16:20:00 14.1 C 85 % 11.62 C
486 09-10-2021 16:25:00 14.1 C 85 % 11.62 C
487 09-10-2021 16:30:00 14 C 84 % 11.34 C
488 09-10-2021 16:35:00 14 C 84 % 11.34 C
489 09-10-2021 16:40:00 14.1 C 85 % 11.62 C
490 09-10-2021 16:45:00 14.1 C 83 % 11.26 C
491 09-10-2021 16:50:00 14.2 C 84 % 11.54 C
492 09-10-2021 16:55:00 14.2 C 84 % 11.54 C
493 09-10-2021 17:00:00 14.3 C 84 % 11.64 C
494 09-10-2021 17:05:00 14.3 C 84 % 11.64 C
495 09-10-2021 17:10:00 14.3 C 85 % 11.81 C
496 09-10-2021 17:15:00 14.5 C 84 % 11.83 C
497 09-10-2021 17:20:00 14.7 C 82 % 11.66 C
498 09-10-2021 17:25:00 15 C 81 % 11.77 C
499 09-10-2021 17:30:00 15.2 C 79 % 11.59 C
500 09-10-2021 17:35:00 15.2 C 79 % 11.59 C
Sensor: Nr:Datum:Temp:Feuchte:Taupunkt:
Aussen-T/F 501 09-10-2021 17:40:00 15.2 C 80 % 11.78 C
502 09-10-2021 17:45:00 15.3 C 80 % 11.87 C
503 09-10-2021 17:50:00 15.3 C 80 % 11.87 C
504 09-10-2021 17:55:00 15.4 C 80 % 11.97 C
505 09-10-2021 18:00:00 15.4 C 79 % 11.78 C
506 09-10-2021 18:05:00 15.5 C 79 % 11.88 C
507 09-10-2021 18:10:00 15.4 C 78 % 11.59 C
508 09-10-2021 18:15:00 15.3 C 77 % 11.3 C
509 09-10-2021 18:20:00 15.2 C 78 % 11.39 C
510 09-10-2021 18:25:00 14.9 C 78 % 11.1 C
511 09-10-2021 18:30:00 14.6 C 79 % 11 C
512 09-10-2021 18:35:00 14.2 C 80 % 10.8 C
513 09-10-2021 18:40:00 13.8 C 80 % 10.41 C
514 09-10-2021 18:45:00 13.4 C 81 % 10.21 C
515 09-10-2021 18:50:00 13.1 C 82 % 10.1 C
516 09-10-2021 18:55:00 12.8 C 83 % 9.99 C
517 09-10-2021 19:00:00 12.5 C 83 % 9.69 C
518 09-10-2021 19:05:00 12.3 C 84 % 9.68 C
519 09-10-2021 19:10:00 12 C 84 % 9.38 C
520 09-10-2021 19:15:00 11.8 C 85 % 9.36 C
521 09-10-2021 19:20:00 11.7 C 84 % 9.09 C
522 09-10-2021 19:25:00 11.6 C 85 % 9.17 C
523 09-10-2021 19:30:00 11.4 C 85 % 8.97 C
524 09-10-2021 19:35:00 11.3 C 86 % 9.05 C
525 09-10-2021 19:40:00 11.2 C 86 % 8.95 C
Sensor: Nr:Datum:Temp:Feuchte:Taupunkt:
Aussen-T/F 526 09-10-2021 19:45:00 11.1 C 86 % 8.85 C
527 09-10-2021 19:50:00 11 C 86 % 8.75 C
528 09-10-2021 19:55:00 10.9 C 87 % 8.82 C
529 09-10-2021 20:00:00 10.8 C 87 % 8.73 C
530 09-10-2021 20:05:00 10.7 C 87 % 8.63 C
531 09-10-2021 20:10:00 10.6 C 87 % 8.53 C
532 09-10-2021 20:15:00 10.4 C 87 % 8.33 C
533 09-10-2021 20:20:00 10.4 C 87 % 8.33 C
534 09-10-2021 20:25:00 10.3 C 88 % 8.4 C
535 09-10-2021 20:30:00 10.2 C 88 % 8.3 C
536 09-10-2021 20:35:00 10.1 C 88 % 8.21 C
537 09-10-2021 20:40:00 10.1 C 88 % 8.21 C
538 09-10-2021 20:45:00 10 C 89 % 8.27 C
539 09-10-2021 20:50:00 9.9 C 89 % 8.17 C
540 09-10-2021 20:55:00 9.9 C 89 % 8.17 C
541 09-10-2021 21:00:00 9.8 C 89 % 8.08 C
542 09-10-2021 21:05:00 9.7 C 89 % 7.98 C
543 09-10-2021 21:10:00 9.6 C 89 % 7.88 C
544 09-10-2021 21:15:00 9.5 C 89 % 7.78 C
545 09-10-2021 21:20:00 9.4 C 90 % 7.85 C
546 09-10-2021 21:25:00 9.4 C 90 % 7.85 C
547 09-10-2021 21:30:00 9.3 C 90 % 7.75 C
548 09-10-2021 21:35:00 9.3 C 90 % 7.75 C
549 09-10-2021 21:40:00 9.3 C 91 % 7.91 C
550 09-10-2021 21:45:00 9.3 C 91 % 7.91 C
Sensor: Nr:Datum:Temp:Feuchte:Taupunkt:
Aussen-T/F 551 09-10-2021 21:50:00 9.2 C 91 % 7.81 C
552 09-10-2021 21:55:00 9.2 C 91 % 7.81 C
553 09-10-2021 22:00:00 9.2 C 91 % 7.81 C
554 09-10-2021 22:05:00 9.1 C 91 % 7.71 C
555 09-10-2021 22:10:00 9 C 91 % 7.61 C
556 09-10-2021 22:15:00 8.9 C 90 % 7.35 C
557 09-10-2021 22:20:00 8.8 C 90 % 7.25 C
558 09-10-2021 22:25:00 8.6 C 90 % 7.06 C
559 09-10-2021 22:30:00 8.4 C 90 % 6.86 C
560 09-10-2021 22:35:00 8.3 C 91 % 6.92 C
561 09-10-2021 22:40:00 8.2 C 90 % 6.66 C
562 09-10-2021 22:45:00 8.1 C 91 % 6.72 C
563 09-10-2021 22:50:00 7.9 C 91 % 6.52 C
564 09-10-2021 22:55:00 7.9 C 91 % 6.52 C
565 09-10-2021 23:00:00 7.8 C 91 % 6.43 C
566 09-10-2021 23:05:00 7.7 C 91 % 6.33 C
567 09-10-2021 23:10:00 7.6 C 92 % 6.39 C
568 09-10-2021 23:15:00 7.5 C 91 % 6.13 C
569 09-10-2021 23:20:00 7.4 C 92 % 6.19 C
570 09-10-2021 23:25:00 7.3 C 92 % 6.09 C
571 09-10-2021 23:30:00 7.2 C 92 % 5.99 C
572 09-10-2021 23:35:00 7.2 C 92 % 5.99 C
573 09-10-2021 23:40:00 7.1 C 92 % 5.89 C
574 09-10-2021 23:45:00 7.1 C 93 % 6.05 C
575 09-10-2021 23:50:00 7 C 93 % 5.95 C
Sensor: Nr:Datum:Temp:Feuchte:Taupunkt:
Aussen-T/F 576 09-10-2021 23:55:00 7 C 93 % 5.95 C
577 10-10-2021 00:00:00 6.9 C 93 % 5.85 C
578 10-10-2021 00:05:00 6.9 C 93 % 5.85 C
579 10-10-2021 00:10:00 6.8 C 93 % 5.75 C
580 10-10-2021 00:15:00 6.7 C 93 % 5.65 C
581 10-10-2021 00:20:00 6.7 C 93 % 5.65 C
582 10-10-2021 00:25:00 6.6 C 93 % 5.55 C
583 10-10-2021 00:30:00 6.6 C 93 % 5.55 C
584 10-10-2021 00:35:00 6.5 C 93 % 5.45 C
585 10-10-2021 00:40:00 6.4 C 93 % 5.35 C
586 10-10-2021 00:45:00 6.4 C 94 % 5.51 C
587 10-10-2021 00:50:00 6.3 C 94 % 5.41 C
588 10-10-2021 00:55:00 6.3 C 94 % 5.41 C
589 10-10-2021 01:00:00 6.2 C 94 % 5.31 C
590 10-10-2021 01:05:00 6.2 C 94 % 5.31 C
591 10-10-2021 01:10:00 6.2 C 94 % 5.31 C
592 10-10-2021 01:15:00 6.3 C 94 % 5.41 C
593 10-10-2021 01:20:00 6.3 C 94 % 5.41 C
594 10-10-2021 01:25:00 6.3 C 94 % 5.41 C
595 10-10-2021 01:30:00 6.3 C 95 % 5.56 C
596 10-10-2021 01:35:00 6.2 C 94 % 5.31 C
597 10-10-2021 01:40:00 6.2 C 94 % 5.31 C
598 10-10-2021 01:45:00 6.1 C 94 % 5.21 C
599 10-10-2021 01:50:00 6.1 C 94 % 5.21 C
600 10-10-2021 01:55:00 6.1 C 94 % 5.21 C
Sensor: Nr:Datum:Temp:Feuchte:Taupunkt:
Aussen-T/F 601 10-10-2021 02:00:00 5.9 C 94 % 5.01 C
602 10-10-2021 02:05:00 5.8 C 94 % 4.91 C
603 10-10-2021 02:10:00 5.7 C 94 % 4.81 C
604 10-10-2021 02:15:00 5.7 C 94 % 4.81 C
605 10-10-2021 02:20:00 5.6 C 94 % 4.71 C
606 10-10-2021 02:25:00 5.5 C 94 % 4.61 C
607 10-10-2021 02:30:00 5.4 C 94 % 4.51 C
608 10-10-2021 02:35:00 5.3 C 94 % 4.41 C
609 10-10-2021 02:40:00 5.3 C 94 % 4.41 C
610 10-10-2021 02:45:00 5.2 C 94 % 4.32 C
611 10-10-2021 02:50:00 5.1 C 94 % 4.22 C
612 10-10-2021 02:55:00 5.1 C 94 % 4.22 C
613 10-10-2021 03:00:00 5 C 94 % 4.12 C
614 10-10-2021 03:05:00 4.9 C 94 % 4.02 C
615 10-10-2021 03:10:00 4.8 C 94 % 3.92 C
616 10-10-2021 03:15:00 4.7 C 94 % 3.82 C
617 10-10-2021 03:20:00 4.7 C 94 % 3.82 C
618 10-10-2021 03:25:00 4.7 C 94 % 3.82 C
619 10-10-2021 03:30:00 4.6 C 94 % 3.72 C
620 10-10-2021 03:35:00 4.6 C 94 % 3.72 C
621 10-10-2021 03:40:00 4.4 C 95 % 3.67 C
622 10-10-2021 03:45:00 4.4 C 94 % 3.52 C
623 10-10-2021 03:50:00 4.4 C 95 % 3.67 C
624 10-10-2021 03:55:00 4.4 C 95 % 3.67 C
625 10-10-2021 04:00:00 4.5 C 95 % 3.77 C
Sensor: Nr:Datum:Temp:Feuchte:Taupunkt:
Aussen-T/F 626 10-10-2021 04:05:00 4.6 C 95 % 3.87 C
627 10-10-2021 04:10:00 4.7 C 95 % 3.97 C
628 10-10-2021 04:15:00 4.8 C 95 % 4.07 C
629 10-10-2021 04:20:00 4.9 C 95 % 4.17 C
630 10-10-2021 04:25:00 4.9 C 95 % 4.17 C
631 10-10-2021 04:30:00 4.9 C 95 % 4.17 C
632 10-10-2021 04:35:00 4.9 C 95 % 4.17 C
633 10-10-2021 04:40:00 4.9 C 95 % 4.17 C
634 10-10-2021 04:45:00 4.9 C 95 % 4.17 C
635 10-10-2021 04:50:00 4.9 C 95 % 4.17 C
636 10-10-2021 04:55:00 4.9 C 95 % 4.17 C
637 10-10-2021 05:00:00 4.9 C 95 % 4.17 C
638 10-10-2021 05:05:00 4.9 C 95 % 4.17 C
639 10-10-2021 05:10:00 4.9 C 95 % 4.17 C
640 10-10-2021 05:15:00 4.8 C 95 % 4.07 C
641 10-10-2021 05:20:00 4.8 C 95 % 4.07 C
642 10-10-2021 05:25:00 4.8 C 95 % 4.07 C
643 10-10-2021 05:30:00 4.9 C 96 % 4.32 C
644 10-10-2021 05:35:00 4.9 C 96 % 4.32 C
645 10-10-2021 05:40:00 4.9 C 96 % 4.32 C
646 10-10-2021 05:45:00 5 C 96 % 4.42 C
647 10-10-2021 05:50:00 5 C 96 % 4.42 C
648 10-10-2021 05:55:00 5.1 C 96 % 4.52 C
649 10-10-2021 06:00:00 5 C 96 % 4.42 C
650 10-10-2021 06:05:00 4.9 C 96 % 4.32 C
Sensor: Nr:Datum:Temp:Feuchte:Taupunkt:
Aussen-T/F 651 10-10-2021 06:10:00 4.9 C 96 % 4.32 C
652 10-10-2021 06:15:00 4.9 C 96 % 4.32 C
653 10-10-2021 06:20:00 4.8 C 96 % 4.22 C
654 10-10-2021 06:25:00 4.8 C 96 % 4.22 C
655 10-10-2021 06:30:00 4.8 C 96 % 4.22 C
656 10-10-2021 06:35:00 4.8 C 96 % 4.22 C
657 10-10-2021 06:40:00 4.7 C 96 % 4.12 C
658 10-10-2021 06:45:00 4.7 C 95 % 3.97 C
659 10-10-2021 06:50:00 4.5 C 95 % 3.77 C
660 10-10-2021 06:55:00 4.3 C 95 % 3.57 C
661 10-10-2021 07:00:00 4.3 C 95 % 3.57 C
662 10-10-2021 07:05:00 4.3 C 95 % 3.57 C
663 10-10-2021 07:10:00 4.4 C 96 % 3.82 C
664 10-10-2021 07:15:00 4.4 C 96 % 3.82 C
665 10-10-2021 07:20:00 4.4 C 96 % 3.82 C
666 10-10-2021 07:25:00 4.4 C 96 % 3.82 C
667 10-10-2021 07:30:00 4.5 C 96 % 3.92 C
668 10-10-2021 07:35:00 4.5 C 96 % 3.92 C
669 10-10-2021 07:40:00 4.5 C 96 % 3.92 C
670 10-10-2021 07:45:00 4.4 C 96 % 3.82 C
671 10-10-2021 07:50:00 4.4 C 96 % 3.82 C
672 10-10-2021 07:55:00 4.4 C 96 % 3.82 C
673 10-10-2021 08:00:00 4.4 C 96 % 3.82 C
674 10-10-2021 08:05:00 4.3 C 96 % 3.72 C
675 10-10-2021 08:10:00 4.3 C 96 % 3.72 C
Sensor: Nr:Datum:Temp:Feuchte:Taupunkt:
Aussen-T/F 676 10-10-2021 08:15:00 4.3 C 96 % 3.72 C
677 10-10-2021 08:20:00 4.3 C 96 % 3.72 C
678 10-10-2021 08:25:00 4.3 C 96 % 3.72 C
679 10-10-2021 08:30:00 4.2 C 96 % 3.62 C
680 10-10-2021 08:35:00 4.2 C 96 % 3.62 C
681 10-10-2021 08:40:00 4.2 C 96 % 3.62 C
682 10-10-2021 08:45:00 4.2 C 96 % 3.62 C
683 10-10-2021 08:50:00 4.2 C 96 % 3.62 C
684 10-10-2021 08:55:00 4.2 C 96 % 3.62 C
685 10-10-2021 09:00:00 4.2 C 96 % 3.62 C
686 10-10-2021 09:05:00 4.3 C 96 % 3.72 C
687 10-10-2021 09:10:00 4.3 C 96 % 3.72 C
688 10-10-2021 09:15:00 4.4 C 96 % 3.82 C
689 10-10-2021 09:20:00 4.4 C 96 % 3.82 C
690 10-10-2021 09:25:00 4.5 C 96 % 3.92 C
691 10-10-2021 09:30:00 4.6 C 96 % 4.02 C
692 10-10-2021 09:35:00 4.6 C 96 % 4.02 C
693 10-10-2021 09:40:00 4.7 C 96 % 4.12 C
694 10-10-2021 09:45:00 4.7 C 97 % 4.27 C
695 10-10-2021 09:50:00 4.8 C 97 % 4.37 C
696 10-10-2021 09:55:00 4.8 C 96 % 4.22 C
697 10-10-2021 10:00:00 4.8 C 96 % 4.22 C
698 10-10-2021 10:05:00 4.9 C 96 % 4.32 C
699 10-10-2021 10:10:00 4.8 C 96 % 4.22 C
700 10-10-2021 10:15:00 4.9 C 96 % 4.32 C
Sensor: Nr:Datum:Temp:Feuchte:Taupunkt:
Aussen-T/F 701 10-10-2021 10:20:00 4.9 C 96 % 4.32 C
702 10-10-2021 10:25:00 5.1 C 97 % 4.66 C
703 10-10-2021 10:30:00 5.1 C 97 % 4.66 C
704 10-10-2021 10:35:00 5.2 C 97 % 4.76 C
705 10-10-2021 10:40:00 5.3 C 97 % 4.86 C
706 10-10-2021 10:45:00 5.4 C 97 % 4.96 C
707 10-10-2021 10:50:00 5.6 C 97 % 5.16 C
708 10-10-2021 10:55:00 5.6 C 97 % 5.16 C
709 10-10-2021 11:00:00 5.6 C 97 % 5.16 C
710 10-10-2021 11:05:00 5.6 C 97 % 5.16 C
711 10-10-2021 11:10:00 5.8 C 97 % 5.36 C
712 10-10-2021 11:15:00 5.8 C 97 % 5.36 C
713 10-10-2021 11:20:00 5.8 C 97 % 5.36 C
714 10-10-2021 11:25:00 5.9 C 97 % 5.46 C
715 10-10-2021 11:30:00 6 C 97 % 5.56 C
716 10-10-2021 11:35:00 6.1 C 97 % 5.66 C
717 10-10-2021 11:40:00 6.2 C 97 % 5.76 C
718 10-10-2021 11:45:00 6.3 C 97 % 5.86 C
719 10-10-2021 11:50:00 6.4 C 97 % 5.96 C
720 10-10-2021 11:55:00 6.6 C 97 % 6.16 C
721 10-10-2021 12:00:00 6.6 C 97 % 6.16 C
722 10-10-2021 12:05:00 6.7 C 97 % 6.26 C
723 10-10-2021 12:10:00 6.7 C 97 % 6.26 C
724 10-10-2021 12:15:00 6.8 C 97 % 6.36 C
725 10-10-2021 12:20:00 6.9 C 97 % 6.46 C
Sensor: Nr:Datum:Temp:Feuchte:Taupunkt:
Aussen-T/F 726 10-10-2021 12:25:00 7.1 C 97 % 6.66 C
727 10-10-2021 12:30:00 7.2 C 97 % 6.76 C
728 10-10-2021 12:35:00 7.3 C 97 % 6.86 C
729 10-10-2021 12:40:00 7.5 C 97 % 7.06 C
730 10-10-2021 12:45:00 7.7 C 97 % 7.25 C
731 10-10-2021 12:50:00 7.9 C 97 % 7.45 C
732 10-10-2021 12:55:00 8.1 C 97 % 7.65 C
733 10-10-2021 13:00:00 8.3 C 97 % 7.85 C
734 10-10-2021 13:05:00 8.6 C 97 % 8.15 C
735 10-10-2021 13:10:00 8.8 C 97 % 8.35 C
736 10-10-2021 13:15:00 9.2 C 97 % 8.75 C
737 10-10-2021 13:20:00 9.4 C 97 % 8.95 C
738 10-10-2021 13:25:00 9.6 C 97 % 9.15 C
739 10-10-2021 13:30:00 9.7 C 97 % 9.25 C
740 10-10-2021 13:35:00 9.8 C 97 % 9.35 C
741 10-10-2021 13:40:00 9.9 C 96 % 9.29 C
742 10-10-2021 13:45:00 10 C 96 % 9.39 C
743 10-10-2021 13:50:00 10.1 C 96 % 9.49 C
744 10-10-2021 13:55:00 10.2 C 96 % 9.59 C
745 10-10-2021 14:00:00 10.3 C 95 % 9.54 C
746 10-10-2021 14:05:00 10.5 C 95 % 9.73 C
747 10-10-2021 14:10:00 10.7 C 95 % 9.93 C
748 10-10-2021 14:15:00 10.8 C 95 % 10.03 C
749 10-10-2021 14:20:00 11.1 C 94 % 10.17 C
750 10-10-2021 14:25:00 11.4 C 94 % 10.47 C
Sensor: Nr:Datum:Temp:Feuchte:Taupunkt:
Aussen-T/F 751 10-10-2021 14:30:00 11.7 C 93 % 10.61 C
752 10-10-2021 14:35:00 12 C 92 % 10.74 C
753 10-10-2021 14:40:00 12.4 C 92 % 11.14 C
754 10-10-2021 14:45:00 12.8 C 91 % 11.37 C
755 10-10-2021 14:50:00 13.1 C 90 % 11.5 C
756 10-10-2021 14:55:00 13.2 C 88 % 11.26 C
757 10-10-2021 15:00:00 13.3 C 87 % 11.18 C
758 10-10-2021 15:05:00 13.4 C 87 % 11.28 C
759 10-10-2021 15:10:00 13.3 C 87 % 11.18 C
760 10-10-2021 15:15:00 13.3 C 86 % 11.01 C
761 10-10-2021 15:20:00 13.2 C 86 % 10.91 C
762 10-10-2021 15:25:00 13.2 C 86 % 10.91 C
763 10-10-2021 15:30:00 13.1 C 85 % 10.64 C
764 10-10-2021 15:35:00 12.8 C 81 % 9.62 C
765 10-10-2021 15:40:00 12.8 C 83 % 9.99 C
766 10-10-2021 15:45:00 12.8 C 84 % 10.17 C
767 10-10-2021 15:50:00 12.8 C 84 % 10.17 C
768 10-10-2021 15:55:00 12.8 C 84 % 10.17 C
769 10-10-2021 16:00:00 12.8 C 84 % 10.17 C
770 10-10-2021 16:05:00 12.7 C 84 % 10.07 C
771 10-10-2021 16:10:00 12.6 C 85 % 10.15 C
772 10-10-2021 16:15:00 12.6 C 84 % 9.97 C
773 10-10-2021 16:20:00 12.5 C 84 % 9.87 C
774 10-10-2021 16:25:00 12.4 C 85 % 9.95 C
775 10-10-2021 16:30:00 12.4 C 86 % 10.13 C
Sensor: Nr:Datum:Temp:Feuchte:Taupunkt:
Aussen-T/F 776 10-10-2021 16:35:00 12.3 C 85 % 9.85 C
777 10-10-2021 16:40:00 12.2 C 86 % 9.93 C
778 10-10-2021 16:45:00 12.2 C 86 % 9.93 C
779 10-10-2021 16:50:00 12.2 C 86 % 9.93 C
780 10-10-2021 16:55:00 12.1 C 86 % 9.83 C
781 10-10-2021 17:00:00 12.1 C 87 % 10 C
782 10-10-2021 17:05:00 12.2 C 87 % 10.1 C
783 10-10-2021 17:10:00 12.2 C 87 % 10.1 C
784 10-10-2021 17:15:00 12.3 C 86 % 10.03 C
785 10-10-2021 17:20:00 12.5 C 86 % 10.22 C
786 10-10-2021 17:25:00 12.6 C 86 % 10.32 C
787 10-10-2021 17:30:00 12.6 C 85 % 10.15 C
788 10-10-2021 17:35:00 12.6 C 85 % 10.15 C
789 10-10-2021 17:40:00 12.6 C 85 % 10.15 C
790 10-10-2021 17:45:00 12.7 C 85 % 10.25 C
791 10-10-2021 17:50:00 12.8 C 84 % 10.17 C
792 10-10-2021 17:55:00 13 C 84 % 10.36 C
793 10-10-2021 18:00:00 13.1 C 83 % 10.28 C
794 10-10-2021 18:05:00 13.2 C 82 % 10.2 C
795 10-10-2021 18:10:00 13.2 C 82 % 10.2 C
796 10-10-2021 18:15:00 13.2 C 81 % 10.01 C
797 10-10-2021 18:20:00 13.1 C 81 % 9.92 C
798 10-10-2021 18:25:00 12.9 C 81 % 9.72 C
799 10-10-2021 18:30:00 12.7 C 81 % 9.53 C
800 10-10-2021 18:35:00 12.3 C 81 % 9.14 C
Sensor: Nr:Datum:Temp:Feuchte:Taupunkt:
Aussen-T/F 801 10-10-2021 18:40:00 11.9 C 81 % 8.75 C
802 10-10-2021 18:45:00 11.4 C 82 % 8.44 C
803 10-10-2021 18:50:00 11.1 C 83 % 8.33 C
804 10-10-2021 18:55:00 10.8 C 84 % 8.21 C
805 10-10-2021 19:00:00 10.5 C 84 % 7.91 C
806 10-10-2021 19:05:00 10.3 C 85 % 7.89 C
807 10-10-2021 19:10:00 10.1 C 85 % 7.7 C
808 10-10-2021 19:15:00 9.9 C 86 % 7.67 C
809 10-10-2021 19:20:00 9.8 C 86 % 7.57 C
810 10-10-2021 19:25:00 9.6 C 87 % 7.55 C
811 10-10-2021 19:30:00 9.4 C 87 % 7.35 C
812 10-10-2021 19:35:00 9.2 C 88 % 7.32 C
813 10-10-2021 19:40:00 9.1 C 88 % 7.22 C
814 10-10-2021 19:45:00 8.8 C 88 % 6.93 C
815 10-10-2021 19:50:00 8.7 C 88 % 6.83 C
816 10-10-2021 19:55:00 8.5 C 88 % 6.63 C
817 10-10-2021 20:00:00 8.3 C 89 % 6.6 C
818 10-10-2021 20:05:00 8.2 C 89 % 6.5 C
819 10-10-2021 20:10:00 8 C 89 % 6.3 C
820 10-10-2021 20:15:00 7.9 C 90 % 6.36 C
821 10-10-2021 20:20:00 7.8 C 90 % 6.27 C
822 10-10-2021 20:25:00 7.7 C 90 % 6.17 C
823 10-10-2021 20:30:00 7.6 C 90 % 6.07 C
824 10-10-2021 20:35:00 7.5 C 91 % 6.13 C
825 10-10-2021 20:40:00 7.3 C 91 % 5.93 C
Sensor: Nr:Datum:Temp:Feuchte:Taupunkt:
Aussen-T/F 826 10-10-2021 20:45:00 7.3 C 91 % 5.93 C
827 10-10-2021 20:50:00 7.2 C 91 % 5.83 C
828 10-10-2021 20:55:00 7.1 C 91 % 5.73 C
829 10-10-2021 21:00:00 6.9 C 92 % 5.69 C
830 10-10-2021 21:05:00 6.8 C 91 % 5.44 C
831 10-10-2021 21:10:00 6.7 C 92 % 5.49 C
832 10-10-2021 21:15:00 6.6 C 92 % 5.4 C
833 10-10-2021 21:20:00 6.5 C 92 % 5.3 C
834 10-10-2021 21:25:00 6.5 C 92 % 5.3 C
835 10-10-2021 21:30:00 6.4 C 93 % 5.35 C
836 10-10-2021 21:35:00 6.4 C 93 % 5.35 C
837 10-10-2021 21:40:00 6.4 C 93 % 5.35 C
838 10-10-2021 21:45:00 6.3 C 93 % 5.25 C
839 10-10-2021 21:50:00 6.3 C 93 % 5.25 C
840 10-10-2021 21:55:00 6.3 C 93 % 5.25 C
841 10-10-2021 22:00:00 6.3 C 93 % 5.25 C
842 10-10-2021 22:05:00 6.2 C 94 % 5.31 C
843 10-10-2021 22:10:00 6.2 C 93 % 5.15 C
844 10-10-2021 22:15:00 6.1 C 93 % 5.06 C
845 10-10-2021 22:20:00 6.1 C 94 % 5.21 C
846 10-10-2021 22:25:00 6 C 94 % 5.11 C
847 10-10-2021 22:30:00 5.9 C 94 % 5.01 C
848 10-10-2021 22:35:00 5.9 C 94 % 5.01 C
849 10-10-2021 22:40:00 5.9 C 94 % 5.01 C
850 10-10-2021 22:45:00 5.9 C 94 % 5.01 C
Sensor: Nr:Datum:Temp:Feuchte:Taupunkt:
Aussen-T/F 851 10-10-2021 22:50:00 5.8 C 94 % 4.91 C
852 10-10-2021 22:55:00 5.8 C 94 % 4.91 C
853 10-10-2021 23:00:00 5.7 C 94 % 4.81 C
854 10-10-2021 23:05:00 5.7 C 94 % 4.81 C
855 10-10-2021 23:10:00 5.7 C 94 % 4.81 C
856 10-10-2021 23:15:00 5.6 C 94 % 4.71 C
857 10-10-2021 23:20:00 5.6 C 94 % 4.71 C
858 10-10-2021 23:25:00 5.6 C 94 % 4.71 C
859 10-10-2021 23:30:00 5.5 C 94 % 4.61 C
860 10-10-2021 23:35:00 5.4 C 94 % 4.51 C
861 10-10-2021 23:40:00 5.4 C 94 % 4.51 C
862 10-10-2021 23:45:00 5.3 C 94 % 4.41 C
863 10-10-2021 23:50:00 5.3 C 94 % 4.41 C
864 10-10-2021 23:55:00 5.3 C 95 % 4.57 C
865 11-10-2021 00:00:00 5.3 C 95 % 4.57 C
866 11-10-2021 00:05:00 5.2 C 95 % 4.47 C
867 11-10-2021 00:10:00 5.2 C 95 % 4.47 C
868 11-10-2021 00:15:00 5.2 C 95 % 4.47 C
869 11-10-2021 00:20:00 5.2 C 95 % 4.47 C
870 11-10-2021 00:25:00 5.1 C 95 % 4.37 C
871 11-10-2021 00:30:00 5.1 C 95 % 4.37 C
872 11-10-2021 00:35:00 5 C 95 % 4.27 C
873 11-10-2021 00:40:00 4.9 C 95 % 4.17 C
874 11-10-2021 00:45:00 4.9 C 95 % 4.17 C
875 11-10-2021 00:50:00 4.9 C 95 % 4.17 C
Sensor: Nr:Datum:Temp:Feuchte:Taupunkt:
Aussen-T/F 876 11-10-2021 00:55:00 4.9 C 95 % 4.17 C
877 11-10-2021 01:00:00 4.9 C 95 % 4.17 C
878 11-10-2021 01:05:00 4.9 C 95 % 4.17 C
879 11-10-2021 01:10:00 4.8 C 95 % 4.07 C
880 11-10-2021 01:15:00 4.8 C 95 % 4.07 C
881 11-10-2021 01:20:00 4.8 C 95 % 4.07 C
882 11-10-2021 01:25:00 4.8 C 95 % 4.07 C
883 11-10-2021 01:30:00 4.7 C 95 % 3.97 C
884 11-10-2021 01:35:00 4.7 C 95 % 3.97 C
885 11-10-2021 01:40:00 4.6 C 95 % 3.87 C
886 11-10-2021 01:45:00 4.6 C 95 % 3.87 C
887 11-10-2021 01:50:00 4.6 C 95 % 3.87 C
888 11-10-2021 01:55:00 4.5 C 95 % 3.77 C
889 11-10-2021 02:00:00 4.5 C 95 % 3.77 C
890 11-10-2021 02:05:00 4.4 C 95 % 3.67 C
891 11-10-2021 02:10:00 4.4 C 95 % 3.67 C
892 11-10-2021 02:15:00 4.4 C 95 % 3.67 C
893 11-10-2021 02:20:00 4.4 C 95 % 3.67 C
894 11-10-2021 02:25:00 4.6 C 96 % 4.02 C
895 11-10-2021 02:30:00 4.7 C 96 % 4.12 C
896 11-10-2021 02:35:00 4.7 C 95 % 3.97 C
897 11-10-2021 02:40:00 4.6 C 95 % 3.87 C
898 11-10-2021 02:45:00 4.6 C 95 % 3.87 C
899 11-10-2021 02:50:00 4.6 C 95 % 3.87 C
900 11-10-2021 02:55:00 4.5 C 95 % 3.77 C
Sensor: Nr:Datum:Temp:Feuchte:Taupunkt:
Aussen-T/F 901 11-10-2021 03:00:00 4.5 C 95 % 3.77 C
902 11-10-2021 03:05:00 4.4 C 95 % 3.67 C
903 11-10-2021 03:10:00 4.3 C 95 % 3.57 C
904 11-10-2021 03:15:00 4.2 C 95 % 3.47 C
905 11-10-2021 03:20:00 4.2 C 95 % 3.47 C
906 11-10-2021 03:25:00 4.1 C 95 % 3.37 C
907 11-10-2021 03:30:00 4.1 C 95 % 3.37 C
908 11-10-2021 03:35:00 4 C 95 % 3.27 C
909 11-10-2021 03:40:00 4.1 C 96 % 3.52 C
910 11-10-2021 03:45:00 4.1 C 95 % 3.37 C
911 11-10-2021 03:50:00 4.2 C 96 % 3.62 C
912 11-10-2021 03:55:00 4.2 C 96 % 3.62 C
913 11-10-2021 04:00:00 4.3 C 96 % 3.72 C
914 11-10-2021 04:05:00 4.4 C 96 % 3.82 C
915 11-10-2021 04:10:00 4.5 C 96 % 3.92 C
916 11-10-2021 04:15:00 4.6 C 96 % 4.02 C
917 11-10-2021 04:20:00 4.7 C 96 % 4.12 C
918 11-10-2021 04:25:00 4.8 C 96 % 4.22 C
919 11-10-2021 04:30:00 4.9 C 96 % 4.32 C
920 11-10-2021 04:35:00 5 C 96 % 4.42 C
921 11-10-2021 04:40:00 5 C 96 % 4.42 C
922 11-10-2021 04:45:00 5 C 96 % 4.42 C
923 11-10-2021 04:50:00 5.1 C 96 % 4.52 C
924 11-10-2021 04:55:00 5.1 C 96 % 4.52 C
925 11-10-2021 05:00:00 5.1 C 96 % 4.52 C
Sensor: Nr:Datum:Temp:Feuchte:Taupunkt:
Aussen-T/F 926 11-10-2021 05:05:00 5.1 C 96 % 4.52 C
927 11-10-2021 05:10:00 5.1 C 96 % 4.52 C
928 11-10-2021 05:15:00 5.1 C 96 % 4.52 C
929 11-10-2021 05:20:00 5.1 C 96 % 4.52 C
930 11-10-2021 05:25:00 5 C 96 % 4.42 C
931 11-10-2021 05:30:00 4.9 C 96 % 4.32 C
932 11-10-2021 05:35:00 4.9 C 96 % 4.32 C
933 11-10-2021 05:40:00 4.8 C 96 % 4.22 C
934 11-10-2021 05:45:00 4.7 C 96 % 4.12 C
935 11-10-2021 05:50:00 4.7 C 96 % 4.12 C
936 11-10-2021 05:55:00 4.6 C 96 % 4.02 C
937 11-10-2021 06:00:00 4.6 C 96 % 4.02 C
938 11-10-2021 06:05:00 4.5 C 96 % 3.92 C
939 11-10-2021 06:10:00 4.6 C 96 % 4.02 C
940 11-10-2021 06:15:00 4.6 C 96 % 4.02 C
941 11-10-2021 06:20:00 4.7 C 96 % 4.12 C
942 11-10-2021 06:25:00 4.8 C 96 % 4.22 C
943 11-10-2021 06:30:00 4.9 C 96 % 4.32 C
944 11-10-2021 06:35:00 5.1 C 96 % 4.52 C
945 11-10-2021 06:40:00 5.3 C 96 % 4.72 C
946 11-10-2021 06:45:00 5.3 C 96 % 4.72 C
947 11-10-2021 06:50:00 5.4 C 96 % 4.81 C
948 11-10-2021 06:55:00 5.4 C 96 % 4.81 C
949 11-10-2021 07:00:00 5.6 C 96 % 5.01 C
950 11-10-2021 07:05:00 5.6 C 96 % 5.01 C
Sensor: Nr:Datum:Temp:Feuchte:Taupunkt:
Aussen-T/F 951 11-10-2021 07:10:00 5.6 C 96 % 5.01 C
952 11-10-2021 07:15:00 5.7 C 96 % 5.11 C
953 11-10-2021 07:20:00 5.7 C 96 % 5.11 C
954 11-10-2021 07:25:00 5.7 C 96 % 5.11 C
955 11-10-2021 07:30:00 5.8 C 96 % 5.21 C
956 11-10-2021 07:35:00 5.8 C 96 % 5.21 C
957 11-10-2021 07:40:00 5.8 C 96 % 5.21 C
958 11-10-2021 07:45:00 5.9 C 96 % 5.31 C
959 11-10-2021 07:50:00 5.9 C 96 % 5.31 C
960 11-10-2021 07:55:00 6 C 96 % 5.41 C
961 11-10-2021 08:00:00 6.1 C 96 % 5.51 C
962 11-10-2021 08:05:00 6.2 C 96 % 5.61 C
963 11-10-2021 08:10:00 6.3 C 96 % 5.71 C
964 11-10-2021 08:15:00 6.3 C 97 % 5.86 C
965 11-10-2021 08:20:00 6.4 C 96 % 5.81 C
966 11-10-2021 08:25:00 6.4 C 96 % 5.81 C
967 11-10-2021 08:30:00 6.4 C 96 % 5.81 C
968 11-10-2021 08:35:00 6.4 C 96 % 5.81 C
969 11-10-2021 08:40:00 6.4 C 96 % 5.81 C
970 11-10-2021 08:45:00 6.5 C 96 % 5.91 C
971 11-10-2021 08:50:00 6.6 C 96 % 6.01 C
972 11-10-2021 08:55:00 6.6 C 96 % 6.01 C
973 11-10-2021 09:00:00 6.7 C 96 % 6.11 C
974 11-10-2021 09:05:00 6.8 C 96 % 6.21 C
975 11-10-2021 09:10:00 6.8 C 96 % 6.21 C
Sensor: Nr:Datum:Temp:Feuchte:Taupunkt:
Aussen-T/F 976 11-10-2021 09:15:00 6.8 C 96 % 6.21 C
977 11-10-2021 09:20:00 6.9 C 97 % 6.46 C
978 11-10-2021 09:25:00 7.1 C 97 % 6.66 C
979 11-10-2021 09:30:00 7.2 C 97 % 6.76 C
980 11-10-2021 09:35:00 7.2 C 96 % 6.61 C
981 11-10-2021 09:40:00 7.2 C 96 % 6.61 C
982 11-10-2021 09:45:00 7.2 C 96 % 6.61 C
983 11-10-2021 09:50:00 7.2 C 96 % 6.61 C
984 11-10-2021 09:55:00 7.3 C 96 % 6.71 C
985 11-10-2021 10:00:00 7.4 C 97 % 6.96 C
986 11-10-2021 10:05:00 7.5 C 96 % 6.9 C
987 11-10-2021 10:10:00 7.6 C 96 % 7 C
988 11-10-2021 10:15:00 7.6 C 96 % 7 C
989 11-10-2021 10:20:00 7.7 C 96 % 7.1 C
990 11-10-2021 10:25:00 7.7 C 97 % 7.25 C
991 11-10-2021 10:30:00 7.8 C 97 % 7.35 C
992 11-10-2021 10:35:00 7.8 C 96 % 7.2 C
993 11-10-2021 10:40:00 7.9 C 97 % 7.45 C
994 11-10-2021 10:45:00 8.1 C 97 % 7.65 C
995 11-10-2021 10:50:00 8.1 C 97 % 7.65 C
996 11-10-2021 10:55:00 8.2 C 96 % 7.6 C
997 11-10-2021 11:00:00 8.3 C 97 % 7.85 C
998 11-10-2021 11:05:00 8.4 C 97 % 7.95 C
999 11-10-2021 11:10:00 8.6 C 97 % 8.15 C
1000 11-10-2021 11:15:00 8.8 C 97 % 8.35 C
Sensor: Nr:Datum:Temp:Feuchte:Taupunkt:
Aussen-T/F 1001 11-10-2021 11:20:00 9 C 97 % 8.55 C
1002 11-10-2021 11:25:00 9.1 C 97 % 8.65 C
1003 11-10-2021 11:30:00 9.2 C 97 % 8.75 C
1004 11-10-2021 11:35:00 9.3 C 97 % 8.85 C
1005 11-10-2021 11:40:00 9.4 C 97 % 8.95 C
1006 11-10-2021 11:45:00 9.5 C 96 % 8.89 C
1007 11-10-2021 11:50:00 9.6 C 96 % 8.99 C
1008 11-10-2021 11:55:00 9.7 C 96 % 9.09 C
1009 11-10-2021 12:00:00 9.9 C 96 % 9.29 C
1010 11-10-2021 12:05:00 10.1 C 96 % 9.49 C
1011 11-10-2021 12:10:00 10.3 C 96 % 9.69 C
1012 11-10-2021 12:15:00 10.4 C 96 % 9.79 C
1013 11-10-2021 12:20:00 10.6 C 96 % 9.99 C
1014 11-10-2021 12:25:00 10.9 C 96 % 10.29 C
1015 11-10-2021 12:30:00 11.2 C 96 % 10.59 C
1016 11-10-2021 12:35:00 11.4 C 96 % 10.79 C
1017 11-10-2021 12:40:00 11.8 C 96 % 11.18 C
1018 11-10-2021 12:45:00 11.9 C 95 % 11.13 C
1019 11-10-2021 12:50:00 12.1 C 95 % 11.32 C
1020 11-10-2021 12:55:00 12.2 C 93 % 11.1 C
1021 11-10-2021 13:00:00 12.3 C 92 % 11.04 C
1022 11-10-2021 13:05:00 12.5 C 92 % 11.24 C
1023 11-10-2021 13:10:00 12.7 C 90 % 11.1 C
1024 11-10-2021 13:15:00 12.8 C 88 % 10.86 C
1025 11-10-2021 13:20:00 13 C 88 % 11.06 C
Sensor: Nr:Datum:Temp:Feuchte:Taupunkt:
Aussen-T/F 1026 11-10-2021 13:25:00 13.2 C 87 % 11.09 C
1027 11-10-2021 13:30:00 13.3 C 86 % 11.01 C
1028 11-10-2021 13:35:00 13.4 C 85 % 10.93 C
1029 11-10-2021 13:40:00 13.4 C 85 % 10.93 C
1030 11-10-2021 13:45:00 13.5 C 84 % 10.85 C
1031 11-10-2021 13:50:00 13.4 C 83 % 10.57 C
1032 11-10-2021 13:55:00 13.4 C 83 % 10.57 C
1033 11-10-2021 14:00:00 13.5 C 83 % 10.67 C
1034 11-10-2021 14:05:00 13.6 C 84 % 10.95 C
1035 11-10-2021 14:10:00 13.7 C 84 % 11.05 C
1036 11-10-2021 14:15:00 13.7 C 82 % 10.69 C
1037 11-10-2021 14:20:00 13.7 C 83 % 10.87 C
1038 11-10-2021 14:25:00 13.6 C 83 % 10.77 C
1039 11-10-2021 14:30:00 13.5 C 83 % 10.67 C
1040 11-10-2021 14:35:00 13.4 C 83 % 10.57 C
1041 11-10-2021 14:40:00 13.4 C 82 % 10.39 C
1042 11-10-2021 14:45:00 13.4 C 82 % 10.39 C
1043 11-10-2021 14:50:00 13.5 C 82 % 10.49 C
1044 11-10-2021 14:55:00 13.6 C 81 % 10.4 C
1045 11-10-2021 15:00:00 13.7 C 80 % 10.32 C
1046 11-10-2021 15:05:00 13.7 C 80 % 10.32 C
1047 11-10-2021 15:10:00 13.7 C 79 % 10.13 C
1048 11-10-2021 15:15:00 13.7 C 79 % 10.13 C
1049 11-10-2021 15:20:00 13.7 C 78 % 9.94 C
1050 11-10-2021 15:25:00 13.7 C 79 % 10.13 C
Sensor: Nr:Datum:Temp:Feuchte:Taupunkt:
Aussen-T/F 1051 11-10-2021 15:30:00 13.8 C 79 % 10.22 C
1052 11-10-2021 15:35:00 13.9 C 79 % 10.32 C
1053 11-10-2021 15:40:00 13.9 C 78 % 10.13 C
1054 11-10-2021 15:45:00 14 C 78 % 10.23 C
1055 11-10-2021 15:50:00 14 C 79 % 10.42 C
1056 11-10-2021 15:55:00 14 C 78 % 10.23 C
1057 11-10-2021 16:00:00 14 C 78 % 10.23 C
1058 11-10-2021 16:05:00 14 C 78 % 10.23 C
1059 11-10-2021 16:10:00 14 C 78 % 10.23 C
1060 11-10-2021 16:15:00 14 C 78 % 10.23 C
1061 11-10-2021 16:20:00 14.1 C 78 % 10.33 C
1062 11-10-2021 16:25:00 14.1 C 76 % 9.94 C
1063 11-10-2021 16:30:00 14.1 C 76 % 9.94 C
1064 11-10-2021 16:35:00 14.2 C 76 % 10.03 C
1065 11-10-2021 16:40:00 14.2 C 76 % 10.03 C
1066 11-10-2021 16:45:00 14.1 C 75 % 9.74 C
1067 11-10-2021 16:50:00 14.1 C 75 % 9.74 C
1068 11-10-2021 16:55:00 14 C 75 % 9.64 C
1069 11-10-2021 17:00:00 14 C 75 % 9.64 C
1070 11-10-2021 17:05:00 13.9 C 75 % 9.55 C
1071 11-10-2021 17:10:00 14 C 74 % 9.44 C
1072 11-10-2021 17:15:00 14.1 C 76 % 9.94 C
1073 11-10-2021 17:20:00 14.1 C 76 % 9.94 C
1074 11-10-2021 17:25:00 14.1 C 75 % 9.74 C
1075 11-10-2021 17:30:00 14.1 C 76 % 9.94 C
Sensor: Nr:Datum:Temp:Feuchte:Taupunkt:
Aussen-T/F 1076 11-10-2021 17:35:00 14.1 C 78 % 10.33 C
1077 11-10-2021 17:40:00 14.1 C 78 % 10.33 C
1078 11-10-2021 17:45:00 14.1 C 77 % 10.13 C
1079 11-10-2021 17:50:00 14.1 C 78 % 10.33 C
1080 11-10-2021 17:55:00 14 C 80 % 10.61 C
1081 11-10-2021 18:00:00 13.9 C 80 % 10.51 C
1082 11-10-2021 18:05:00 13.8 C 79 % 10.22 C
1083 11-10-2021 18:10:00 13.7 C 80 % 10.32 C
1084 11-10-2021 18:15:00 13.6 C 78 % 9.84 C
1085 11-10-2021 18:20:00 13.5 C 81 % 10.31 C
1086 11-10-2021 18:25:00 13.4 C 81 % 10.21 C
1087 11-10-2021 18:30:00 13.2 C 82 % 10.2 C
1088 11-10-2021 18:35:00 13 C 82 % 10 C
1089 11-10-2021 18:40:00 12.8 C 82 % 9.81 C
1090 11-10-2021 18:45:00 12.5 C 82 % 9.51 C
1091 11-10-2021 18:50:00 12.3 C 83 % 9.5 C
1092 11-10-2021 18:55:00 11.9 C 84 % 9.29 C
1093 11-10-2021 19:00:00 11.7 C 84 % 9.09 C
1094 11-10-2021 19:05:00 11.4 C 85 % 8.97 C
1095 11-10-2021 19:10:00 11.2 C 86 % 8.95 C
1096 11-10-2021 19:15:00 11 C 87 % 8.92 C
1097 11-10-2021 19:20:00 10.8 C 87 % 8.73 C
1098 11-10-2021 19:25:00 10.7 C 88 % 8.8 C
1099 11-10-2021 19:30:00 10.6 C 88 % 8.7 C
1100 11-10-2021 19:35:00 10.4 C 88 % 8.5 C
Sensor: Nr:Datum:Temp:Feuchte:Taupunkt:
Aussen-T/F 1101 11-10-2021 19:40:00 10.3 C 89 % 8.57 C
1102 11-10-2021 19:45:00 10.2 C 89 % 8.47 C
1103 11-10-2021 19:50:00 10.2 C 89 % 8.47 C
1104 11-10-2021 19:55:00 10.2 C 90 % 8.64 C
1105 11-10-2021 20:00:00 10.1 C 90 % 8.54 C
1106 11-10-2021 20:05:00 10.1 C 90 % 8.54 C
1107 11-10-2021 20:10:00 10.1 C 91 % 8.7 C
1108 11-10-2021 20:15:00 10.1 C 91 % 8.7 C
1109 11-10-2021 20:20:00 10.1 C 91 % 8.7 C
1110 11-10-2021 20:25:00 10.1 C 91 % 8.7 C
1111 11-10-2021 20:30:00 10.2 C 91 % 8.8 C
1112 11-10-2021 20:35:00 10.2 C 92 % 8.96 C
1113 11-10-2021 20:40:00 10.2 C 91 % 8.8 C
1114 11-10-2021 20:45:00 10.2 C 91 % 8.8 C
1115 11-10-2021 20:50:00 10.2 C 92 % 8.96 C
1116 11-10-2021 20:55:00 10.2 C 91 % 8.8 C
1117 11-10-2021 21:00:00 10.1 C 91 % 8.7 C
1118 11-10-2021 21:05:00 10 C 91 % 8.6 C
1119 11-10-2021 21:10:00 9.9 C 91 % 8.5 C
1120 11-10-2021 21:15:00 9.8 C 91 % 8.4 C
1121 11-10-2021 21:20:00 9.7 C 91 % 8.3 C
1122 11-10-2021 21:25:00 9.6 C 91 % 8.21 C
1123 11-10-2021 21:30:00 9.6 C 91 % 8.21 C
1124 11-10-2021 21:35:00 9.6 C 92 % 8.37 C
1125 11-10-2021 21:40:00 9.6 C 92 % 8.37 C
Sensor: Nr:Datum:Temp:Feuchte:Taupunkt:
Aussen-T/F 1126 11-10-2021 21:45:00 9.6 C 92 % 8.37 C
1127 11-10-2021 21:50:00 9.7 C 92 % 8.46 C
1128 11-10-2021 21:55:00 9.7 C 92 % 8.46 C
1129 11-10-2021 22:00:00 9.7 C 92 % 8.46 C
1130 11-10-2021 22:05:00 9.7 C 92 % 8.46 C
1131 11-10-2021 22:10:00 9.8 C 93 % 8.72 C
1132 11-10-2021 22:15:00 9.8 C 93 % 8.72 C
1133 11-10-2021 22:20:00 9.8 C 93 % 8.72 C
1134 11-10-2021 22:25:00 9.9 C 93 % 8.82 C
1135 11-10-2021 22:30:00 9.9 C 93 % 8.82 C
1136 11-10-2021 22:35:00 9.9 C 93 % 8.82 C
1137 11-10-2021 22:40:00 9.9 C 93 % 8.82 C
1138 11-10-2021 22:45:00 9.9 C 93 % 8.82 C
1139 11-10-2021 22:50:00 9.9 C 93 % 8.82 C
1140 11-10-2021 22:55:00 9.9 C 93 % 8.82 C
1141 11-10-2021 23:00:00 9.9 C 94 % 8.98 C
1142 11-10-2021 23:05:00 9.9 C 94 % 8.98 C
1143 11-10-2021 23:10:00 9.9 C 94 % 8.98 C
1144 11-10-2021 23:15:00 9.9 C 94 % 8.98 C
1145 11-10-2021 23:20:00 9.8 C 94 % 8.88 C
1146 11-10-2021 23:25:00 9.8 C 94 % 8.88 C
1147 11-10-2021 23:30:00 9.8 C 94 % 8.88 C
1148 11-10-2021 23:35:00 9.8 C 94 % 8.88 C
1149 11-10-2021 23:40:00 9.8 C 94 % 8.88 C
1150 11-10-2021 23:45:00 9.8 C 94 % 8.88 C
Sensor: Nr:Datum:Temp:Feuchte:Taupunkt:
Aussen-T/F 1151 11-10-2021 23:50:00 9.8 C 94 % 8.88 C
1152 11-10-2021 23:55:00 9.8 C 94 % 8.88 C
1153 12-10-2021 00:00:00 9.8 C 94 % 8.88 C
1154 12-10-2021 00:05:00 9.8 C 94 % 8.88 C
1155 12-10-2021 00:10:00 9.8 C 94 % 8.88 C
1156 12-10-2021 00:15:00 9.7 C 94 % 8.78 C
1157 12-10-2021 00:20:00 9.8 C 94 % 8.88 C
1158 12-10-2021 00:25:00 9.8 C 94 % 8.88 C
1159 12-10-2021 00:30:00 9.8 C 95 % 9.04 C
1160 12-10-2021 00:35:00 9.8 C 95 % 9.04 C
1161 12-10-2021 00:40:00 9.8 C 95 % 9.04 C
1162 12-10-2021 00:45:00 9.8 C 95 % 9.04 C
1163 12-10-2021 00:50:00 9.7 C 95 % 8.94 C
1164 12-10-2021 00:55:00 9.7 C 95 % 8.94 C
1165 12-10-2021 01:00:00 9.7 C 95 % 8.94 C
1166 12-10-2021 01:05:00 9.7 C 95 % 8.94 C
1167 12-10-2021 01:10:00 9.7 C 95 % 8.94 C
1168 12-10-2021 01:15:00 9.7 C 95 % 8.94 C
1169 12-10-2021 01:20:00 9.6 C 95 % 8.84 C
1170 12-10-2021 01:25:00 9.6 C 95 % 8.84 C
1171 12-10-2021 01:30:00 9.6 C 95 % 8.84 C
1172 12-10-2021 01:35:00 9.6 C 95 % 8.84 C
1173 12-10-2021 01:40:00 9.6 C 95 % 8.84 C
1174 12-10-2021 01:45:00 9.6 C 95 % 8.84 C
1175 12-10-2021 01:50:00 9.6 C 95 % 8.84 C
Sensor: Nr:Datum:Temp:Feuchte:Taupunkt:
Aussen-T/F 1176 12-10-2021 01:55:00 9.6 C 95 % 8.84 C
1177 12-10-2021 02:00:00 9.6 C 95 % 8.84 C
1178 12-10-2021 02:05:00 9.6 C 95 % 8.84 C
1179 12-10-2021 02:10:00 9.6 C 95 % 8.84 C
1180 12-10-2021 02:15:00 9.6 C 95 % 8.84 C
1181 12-10-2021 02:20:00 9.5 C 95 % 8.74 C
1182 12-10-2021 02:25:00 9.4 C 95 % 8.64 C
1183 12-10-2021 02:30:00 9.4 C 95 % 8.64 C
1184 12-10-2021 02:35:00 9.4 C 95 % 8.64 C
1185 12-10-2021 02:40:00 9.4 C 95 % 8.64 C
1186 12-10-2021 02:45:00 9.3 C 95 % 8.54 C
1187 12-10-2021 02:50:00 9.3 C 95 % 8.54 C
1188 12-10-2021 02:55:00 9.3 C 95 % 8.54 C
1189 12-10-2021 03:00:00 9.3 C 95 % 8.54 C
1190 12-10-2021 03:05:00 9.3 C 95 % 8.54 C
1191 12-10-2021 03:10:00 9.4 C 95 % 8.64 C
1192 12-10-2021 03:15:00 9.4 C 95 % 8.64 C
1193 12-10-2021 03:20:00 9.4 C 95 % 8.64 C
1194 12-10-2021 03:25:00 9.4 C 95 % 8.64 C
1195 12-10-2021 03:30:00 9.4 C 95 % 8.64 C
1196 12-10-2021 03:35:00 9.4 C 96 % 8.8 C
1197 12-10-2021 03:40:00 9.4 C 96 % 8.8 C
1198 12-10-2021 03:45:00 9.4 C 96 % 8.8 C
1199 12-10-2021 03:50:00 9.5 C 96 % 8.89 C
1200 12-10-2021 03:55:00 9.5 C 96 % 8.89 C
Sensor: Nr:Datum:Temp:Feuchte:Taupunkt:
Aussen-T/F 1201 12-10-2021 04:00:00 9.5 C 96 % 8.89 C
1202 12-10-2021 04:05:00 9.5 C 96 % 8.89 C
1203 12-10-2021 04:10:00 9.5 C 96 % 8.89 C
1204 12-10-2021 04:15:00 9.5 C 96 % 8.89 C
1205 12-10-2021 04:20:00 9.5 C 96 % 8.89 C
1206 12-10-2021 04:25:00 9.5 C 96 % 8.89 C
1207 12-10-2021 04:30:00 9.5 C 96 % 8.89 C
1208 12-10-2021 04:35:00 9.5 C 96 % 8.89 C
1209 12-10-2021 04:40:00 9.5 C 96 % 8.89 C
1210 12-10-2021 04:45:00 9.5 C 96 % 8.89 C
1211 12-10-2021 04:50:00 9.5 C 96 % 8.89 C
1212 12-10-2021 04:55:00 9.5 C 96 % 8.89 C
1213 12-10-2021 05:00:00 9.5 C 96 % 8.89 C
1214 12-10-2021 05:05:00 9.5 C 96 % 8.89 C
1215 12-10-2021 05:10:00 9.6 C 96 % 8.99 C
1216 12-10-2021 05:15:00 9.6 C 96 % 8.99 C
1217 12-10-2021 05:20:00 9.6 C 96 % 8.99 C
1218 12-10-2021 05:25:00 9.6 C 96 % 8.99 C
1219 12-10-2021 05:30:00 9.6 C 96 % 8.99 C
1220 12-10-2021 05:35:00 9.6 C 96 % 8.99 C
1221 12-10-2021 05:40:00 9.6 C 96 % 8.99 C
1222 12-10-2021 05:45:00 9.6 C 96 % 8.99 C
1223 12-10-2021 05:50:00 9.6 C 96 % 8.99 C
1224 12-10-2021 05:55:00 9.6 C 96 % 8.99 C
1225 12-10-2021 06:00:00 9.6 C 96 % 8.99 C
Sensor: Nr:Datum:Temp:Feuchte:Taupunkt:
Aussen-T/F 1226 12-10-2021 06:05:00 9.6 C 96 % 8.99 C
1227 12-10-2021 06:10:00 9.6 C 96 % 8.99 C
1228 12-10-2021 06:15:00 9.6 C 96 % 8.99 C
1229 12-10-2021 06:20:00 9.6 C 96 % 8.99 C
1230 12-10-2021 06:25:00 9.6 C 96 % 8.99 C
1231 12-10-2021 06:30:00 9.6 C 96 % 8.99 C
1232 12-10-2021 06:35:00 9.6 C 96 % 8.99 C
1233 12-10-2021 06:40:00 9.6 C 96 % 8.99 C
1234 12-10-2021 06:45:00 9.6 C 96 % 8.99 C
1235 12-10-2021 06:50:00 9.5 C 96 % 8.89 C
1236 12-10-2021 06:55:00 9.5 C 96 % 8.89 C
1237 12-10-2021 07:00:00 9.5 C 96 % 8.89 C
1238 12-10-2021 07:05:00 9.4 C 96 % 8.8 C
1239 12-10-2021 07:10:00 9.4 C 96 % 8.8 C
1240 12-10-2021 07:15:00 9.4 C 96 % 8.8 C
1241 12-10-2021 07:20:00 9.4 C 96 % 8.8 C
1242 12-10-2021 07:25:00 9.4 C 96 % 8.8 C
1243 12-10-2021 07:30:00 9.4 C 96 % 8.8 C
1244 12-10-2021 07:35:00 9.4 C 96 % 8.8 C
1245 12-10-2021 07:40:00 9.4 C 96 % 8.8 C
1246 12-10-2021 07:45:00 9.3 C 96 % 8.7 C
1247 12-10-2021 07:50:00 9.3 C 96 % 8.7 C
1248 12-10-2021 07:55:00 9.3 C 96 % 8.7 C
1249 12-10-2021 08:00:00 9.3 C 96 % 8.7 C
1250 12-10-2021 08:05:00 9.3 C 96 % 8.7 C
Sensor: Nr:Datum:Temp:Feuchte:Taupunkt:
Aussen-T/F 1251 12-10-2021 08:10:00 9.3 C 96 % 8.7 C
1252 12-10-2021 08:15:00 9.3 C 96 % 8.7 C
1253 12-10-2021 08:20:00 9.3 C 96 % 8.7 C
1254 12-10-2021 08:25:00 9.4 C 96 % 8.8 C
1255 12-10-2021 08:30:00 9.4 C 96 % 8.8 C
1256 12-10-2021 08:35:00 9.4 C 96 % 8.8 C
1257 12-10-2021 08:40:00 9.4 C 96 % 8.8 C
1258 12-10-2021 08:45:00 9.5 C 96 % 8.89 C
1259 12-10-2021 08:50:00 9.5 C 96 % 8.89 C
1260 12-10-2021 08:55:00 9.6 C 96 % 8.99 C
1261 12-10-2021 09:00:00 9.6 C 96 % 8.99 C
1262 12-10-2021 09:05:00 9.6 C 96 % 8.99 C
1263 12-10-2021 09:10:00 9.6 C 96 % 8.99 C
1264 12-10-2021 09:15:00 9.6 C 96 % 8.99 C
1265 12-10-2021 09:20:00 9.6 C 96 % 8.99 C
1266 12-10-2021 09:25:00 9.6 C 96 % 8.99 C
1267 12-10-2021 09:30:00 9.7 C 96 % 9.09 C
1268 12-10-2021 09:35:00 9.7 C 97 % 9.25 C
1269 12-10-2021 09:40:00 9.8 C 97 % 9.35 C
1270 12-10-2021 09:45:00 9.8 C 96 % 9.19 C
1271 12-10-2021 09:50:00 9.9 C 96 % 9.29 C
1272 12-10-2021 09:55:00 10 C 96 % 9.39 C
1273 12-10-2021 10:00:00 10.1 C 97 % 9.65 C
1274 12-10-2021 10:05:00 10.2 C 96 % 9.59 C
1275 12-10-2021 10:10:00 10.2 C 96 % 9.59 C
Sensor: Nr:Datum:Temp:Feuchte:Taupunkt:
Aussen-T/F 1276 12-10-2021 10:15:00 10.3 C 97 % 9.85 C
1277 12-10-2021 10:20:00 10.3 C 97 % 9.85 C
1278 12-10-2021 10:25:00 10.4 C 96 % 9.79 C
1279 12-10-2021 10:30:00 10.6 C 96 % 9.99 C
1280 12-10-2021 10:35:00 10.7 C 96 % 10.09 C
1281 12-10-2021 10:40:00 10.7 C 96 % 10.09 C
1282 12-10-2021 10:45:00 10.8 C 96 % 10.19 C
1283 12-10-2021 10:50:00 10.8 C 96 % 10.19 C
1284 12-10-2021 10:55:00 10.8 C 96 % 10.19 C
1285 12-10-2021 11:00:00 10.8 C 96 % 10.19 C
1286 12-10-2021 11:05:00 10.8 C 96 % 10.19 C
1287 12-10-2021 11:10:00 10.9 C 96 % 10.29 C
1288 12-10-2021 11:15:00 10.9 C 96 % 10.29 C
1289 12-10-2021 11:20:00 10.8 C 96 % 10.19 C
1290 12-10-2021 11:25:00 10.7 C 95 % 9.93 C
1291 12-10-2021 11:30:00 10.7 C 95 % 9.93 C
1292 12-10-2021 11:35:00 10.7 C 95 % 9.93 C
1293 12-10-2021 11:40:00 10.7 C 96 % 10.09 C
1294 12-10-2021 11:45:00 10.8 C 96 % 10.19 C
1295 12-10-2021 11:50:00 11 C 96 % 10.39 C
1296 12-10-2021 11:55:00 11.1 C 96 % 10.49 C
1297 12-10-2021 12:00:00 11.1 C 95 % 10.33 C
1298 12-10-2021 12:05:00 11.2 C 95 % 10.43 C
1299 12-10-2021 12:10:00 11.2 C 95 % 10.43 C
1300 12-10-2021 12:15:00 11.4 C 95 % 10.63 C
Sensor: Nr:Datum:Temp:Feuchte:Taupunkt:
Aussen-T/F 1301 12-10-2021 12:20:00 11.6 C 95 % 10.83 C
1302 12-10-2021 12:25:00 11.6 C 94 % 10.67 C
1303 12-10-2021 12:30:00 11.7 C 94 % 10.77 C
1304 12-10-2021 12:35:00 11.8 C 94 % 10.87 C
1305 12-10-2021 12:40:00 11.8 C 94 % 10.87 C
1306 12-10-2021 12:45:00 11.7 C 94 % 10.77 C
1307 12-10-2021 12:50:00 11.7 C 94 % 10.77 C
1308 12-10-2021 12:55:00 11.7 C 94 % 10.77 C
1309 12-10-2021 13:00:00 11.7 C 94 % 10.77 C
1310 12-10-2021 13:05:00 11.7 C 94 % 10.77 C
1311 12-10-2021 13:10:00 11.7 C 94 % 10.77 C
1312 12-10-2021 13:15:00 11.7 C 94 % 10.77 C
1313 12-10-2021 13:20:00 11.7 C 94 % 10.77 C
1314 12-10-2021 13:25:00 11.7 C 95 % 10.93 C
1315 12-10-2021 13:30:00 11.7 C 94 % 10.77 C
1316 12-10-2021 13:35:00 11.7 C 95 % 10.93 C
1317 12-10-2021 13:40:00 11.7 C 95 % 10.93 C
1318 12-10-2021 13:45:00 11.7 C 95 % 10.93 C
1319 12-10-2021 13:50:00 11.7 C 95 % 10.93 C
1320 12-10-2021 13:55:00 11.8 C 95 % 11.03 C
1321 12-10-2021 14:00:00 11.7 C 95 % 10.93 C
1322 12-10-2021 14:05:00 11.7 C 95 % 10.93 C
1323 12-10-2021 14:10:00 11.7 C 95 % 10.93 C
1324 12-10-2021 14:15:00 11.7 C 95 % 10.93 C
1325 12-10-2021 14:20:00 11.6 C 95 % 10.83 C
Sensor: Nr:Datum:Temp:Feuchte:Taupunkt:
Aussen-T/F 1326 12-10-2021 14:25:00 11.7 C 95 % 10.93 C
1327 12-10-2021 14:30:00 11.7 C 95 % 10.93 C
1328 12-10-2021 14:35:00 11.7 C 95 % 10.93 C
1329 12-10-2021 14:40:00 11.8 C 95 % 11.03 C
1330 12-10-2021 14:45:00 11.8 C 95 % 11.03 C
1331 12-10-2021 14:50:00 11.9 C 95 % 11.13 C
1332 12-10-2021 14:55:00 11.8 C 95 % 11.03 C
1333 12-10-2021 15:00:00 11.8 C 95 % 11.03 C
1334 12-10-2021 15:05:00 11.8 C 95 % 11.03 C
1335 12-10-2021 15:10:00 11.7 C 95 % 10.93 C
1336 12-10-2021 15:15:00 11.6 C 95 % 10.83 C
1337 12-10-2021 15:20:00 11.5 C 95 % 10.73 C
1338 12-10-2021 15:25:00 11.4 C 95 % 10.63 C
1339 12-10-2021 15:30:00 11.4 C 95 % 10.63 C
1340 12-10-2021 15:35:00 11.4 C 95 % 10.63 C
1341 12-10-2021 15:40:00 11.4 C 95 % 10.63 C
1342 12-10-2021 15:45:00 11.4 C 95 % 10.63 C
1343 12-10-2021 15:50:00 11.6 C 96 % 10.98 C
1344 12-10-2021 15:55:00 11.7 C 96 % 11.08 C
1345 12-10-2021 16:00:00 11.8 C 96 % 11.18 C
1346 12-10-2021 16:05:00 11.8 C 96 % 11.18 C
1347 12-10-2021 16:10:00 11.9 C 96 % 11.28 C
1348 12-10-2021 16:15:00 11.9 C 96 % 11.28 C
1349 12-10-2021 16:20:00 12.1 C 96 % 11.48 C
1350 12-10-2021 16:25:00 12.1 C 96 % 11.48 C
Sensor: Nr:Datum:Temp:Feuchte:Taupunkt:
Aussen-T/F 1351 12-10-2021 16:30:00 12.2 C 96 % 11.58 C
1352 12-10-2021 16:35:00 12.2 C 96 % 11.58 C
1353 12-10-2021 16:40:00 12.1 C 96 % 11.48 C
1354 12-10-2021 16:45:00 12 C 96 % 11.38 C
1355 12-10-2021 16:50:00 11.9 C 96 % 11.28 C
1356 12-10-2021 16:55:00 11.9 C 96 % 11.28 C
1357 12-10-2021 17:00:00 11.8 C 96 % 11.18 C
1358 12-10-2021 17:05:00 11.8 C 96 % 11.18 C
1359 12-10-2021 17:10:00 11.8 C 96 % 11.18 C
1360 12-10-2021 17:15:00 11.8 C 96 % 11.18 C
1361 12-10-2021 17:20:00 11.8 C 96 % 11.18 C
1362 12-10-2021 17:25:00 11.7 C 96 % 11.08 C
1363 12-10-2021 17:30:00 11.7 C 96 % 11.08 C
1364 12-10-2021 17:35:00 11.6 C 96 % 10.98 C
1365 12-10-2021 17:40:00 11.6 C 96 % 10.98 C
1366 12-10-2021 17:45:00 11.5 C 96 % 10.88 C
1367 12-10-2021 17:50:00 11.4 C 96 % 10.79 C
1368 12-10-2021 17:55:00 11.4 C 96 % 10.79 C
1369 12-10-2021 18:00:00 11.4 C 96 % 10.79 C
1370 12-10-2021 18:05:00 11.4 C 96 % 10.79 C
1371 12-10-2021 18:10:00 11.3 C 96 % 10.69 C
1372 12-10-2021 18:15:00 11.3 C 96 % 10.69 C
1373 12-10-2021 18:20:00 11.3 C 95 % 10.53 C
1374 12-10-2021 18:25:00 11.2 C 95 % 10.43 C
1375 12-10-2021 18:30:00 11.2 C 96 % 10.59 C
Sensor: Nr:Datum:Temp:Feuchte:Taupunkt:
Aussen-T/F 1376 12-10-2021 18:35:00 11.1 C 95 % 10.33 C
1377 12-10-2021 18:40:00 11.1 C 95 % 10.33 C
1378 12-10-2021 18:45:00 11.1 C 95 % 10.33 C
1379 12-10-2021 18:50:00 11.1 C 96 % 10.49 C
1380 12-10-2021 18:55:00 11.1 C 96 % 10.49 C
1381 12-10-2021 19:00:00 11 C 96 % 10.39 C
1382 12-10-2021 19:05:00 10.9 C 96 % 10.29 C
1383 12-10-2021 19:10:00 10.8 C 95 % 10.03 C
1384 12-10-2021 19:15:00 10.7 C 95 % 9.93 C
1385 12-10-2021 19:20:00 10.4 C 95 % 9.63 C
1386 12-10-2021 19:25:00 10.3 C 95 % 9.54 C
1387 12-10-2021 19:30:00 10.1 C 95 % 9.34 C
1388 12-10-2021 19:35:00 9.9 C 94 % 8.98 C
1389 12-10-2021 19:40:00 9.7 C 95 % 8.94 C
1390 12-10-2021 19:45:00 9.6 C 95 % 8.84 C
1391 12-10-2021 19:50:00 9.5 C 95 % 8.74 C
1392 12-10-2021 19:55:00 9.6 C 96 % 8.99 C
1393 12-10-2021 20:00:00 9.6 C 96 % 8.99 C
1394 12-10-2021 20:05:00 9.7 C 96 % 9.09 C
1395 12-10-2021 20:10:00 9.7 C 96 % 9.09 C
1396 12-10-2021 20:15:00 9.6 C 96 % 8.99 C
1397 12-10-2021 20:20:00 9.5 C 96 % 8.89 C
1398 12-10-2021 20:25:00 9.3 C 95 % 8.54 C
1399 12-10-2021 20:30:00 9.2 C 95 % 8.44 C
1400 12-10-2021 20:35:00 9.1 C 95 % 8.34 C
Sensor: Nr:Datum:Temp:Feuchte:Taupunkt:
Aussen-T/F 1401 12-10-2021 20:40:00 8.9 C 95 % 8.14 C
1402 12-10-2021 20:45:00 8.8 C 95 % 8.04 C
1403 12-10-2021 20:50:00 8.7 C 95 % 7.94 C
1404 12-10-2021 20:55:00 8.5 C 95 % 7.75 C
1405 12-10-2021 21:00:00 8.4 C 95 % 7.65 C
1406 12-10-2021 21:05:00 8.3 C 95 % 7.55 C
1407 12-10-2021 21:10:00 8.2 C 95 % 7.45 C
1408 12-10-2021 21:15:00 8.1 C 95 % 7.35 C
1409 12-10-2021 21:20:00 8.1 C 96 % 7.5 C
1410 12-10-2021 21:25:00 8 C 95 % 7.25 C
1411 12-10-2021 21:30:00 8 C 95 % 7.25 C
1412 12-10-2021 21:35:00 7.9 C 96 % 7.3 C
1413 12-10-2021 21:40:00 7.9 C 96 % 7.3 C
1414 12-10-2021 21:45:00 7.9 C 96 % 7.3 C
1415 12-10-2021 21:50:00 7.9 C 96 % 7.3 C
1416 12-10-2021 21:55:00 7.9 C 96 % 7.3 C
1417 12-10-2021 22:00:00 7.9 C 96 % 7.3 C
1418 12-10-2021 22:05:00 7.9 C 96 % 7.3 C
1419 12-10-2021 22:10:00 7.9 C 96 % 7.3 C
1420 12-10-2021 22:15:00 8 C 96 % 7.4 C
1421 12-10-2021 22:20:00 7.9 C 96 % 7.3 C
1422 12-10-2021 22:25:00 7.9 C 96 % 7.3 C
1423 12-10-2021 22:30:00 7.9 C 96 % 7.3 C
1424 12-10-2021 22:35:00 7.9 C 96 % 7.3 C
1425 12-10-2021 22:40:00 7.8 C 96 % 7.2 C
Sensor: Nr:Datum:Temp:Feuchte:Taupunkt:
Aussen-T/F 1426 12-10-2021 22:45:00 7.8 C 96 % 7.2 C
1427 12-10-2021 22:50:00 7.8 C 96 % 7.2 C
1428 12-10-2021 22:55:00 7.7 C 96 % 7.1 C
1429 12-10-2021 23:00:00 7.7 C 96 % 7.1 C
1430 12-10-2021 23:05:00 7.7 C 96 % 7.1 C
1431 12-10-2021 23:10:00 7.7 C 96 % 7.1 C
1432 12-10-2021 23:15:00 7.7 C 96 % 7.1 C
1433 12-10-2021 23:20:00 7.7 C 96 % 7.1 C
1434 12-10-2021 23:25:00 7.6 C 96 % 7 C
1435 12-10-2021 23:30:00 7.6 C 96 % 7 C
1436 12-10-2021 23:35:00 7.6 C 96 % 7 C
1437 12-10-2021 23:40:00 7.4 C 96 % 6.8 C
1438 12-10-2021 23:45:00 7.4 C 96 % 6.8 C
1439 12-10-2021 23:50:00 7.3 C 96 % 6.71 C
1440 12-10-2021 23:55:00 7.2 C 96 % 6.61 C
1441 13-10-2021 00:00:00 7.2 C 96 % 6.61 C
1442 13-10-2021 00:05:00 7.2 C 96 % 6.61 C
1443 13-10-2021 00:10:00 7.1 C 96 % 6.51 C
1444 13-10-2021 00:15:00 7.1 C 96 % 6.51 C
1445 13-10-2021 00:20:00 7 C 96 % 6.41 C
1446 13-10-2021 00:25:00 6.9 C 96 % 6.31 C
1447 13-10-2021 00:30:00 6.9 C 96 % 6.31 C
1448 13-10-2021 00:35:00 6.8 C 96 % 6.21 C
1449 13-10-2021 00:40:00 6.8 C 96 % 6.21 C
1450 13-10-2021 00:45:00 6.8 C 96 % 6.21 C
Sensor: Nr:Datum:Temp:Feuchte:Taupunkt:
Aussen-T/F 1451 13-10-2021 00:50:00 6.7 C 96 % 6.11 C
1452 13-10-2021 00:55:00 6.7 C 96 % 6.11 C
1453 13-10-2021 01:00:00 6.6 C 96 % 6.01 C
1454 13-10-2021 01:05:00 6.6 C 96 % 6.01 C
1455 13-10-2021 01:10:00 6.5 C 96 % 5.91 C
1456 13-10-2021 01:15:00 6.4 C 96 % 5.81 C
1457 13-10-2021 01:20:00 6.4 C 96 % 5.81 C
1458 13-10-2021 01:25:00 6.4 C 96 % 5.81 C
1459 13-10-2021 01:30:00 6.4 C 96 % 5.81 C
1460 13-10-2021 01:35:00 6.4 C 96 % 5.81 C
1461 13-10-2021 01:40:00 6.4 C 96 % 5.81 C
1462 13-10-2021 01:45:00 6.3 C 96 % 5.71 C
1463 13-10-2021 01:50:00 6.3 C 96 % 5.71 C
1464 13-10-2021 01:55:00 6.3 C 96 % 5.71 C
1465 13-10-2021 02:00:00 6.2 C 96 % 5.61 C
1466 13-10-2021 02:05:00 6.1 C 96 % 5.51 C
1467 13-10-2021 02:10:00 6.1 C 96 % 5.51 C
1468 13-10-2021 02:15:00 5.9 C 96 % 5.31 C
1469 13-10-2021 02:20:00 5.8 C 96 % 5.21 C
1470 13-10-2021 02:25:00 5.8 C 96 % 5.21 C
1471 13-10-2021 02:30:00 5.7 C 96 % 5.11 C
1472 13-10-2021 02:35:00 5.7 C 96 % 5.11 C
1473 13-10-2021 02:40:00 5.7 C 96 % 5.11 C
1474 13-10-2021 02:45:00 5.6 C 96 % 5.01 C
1475 13-10-2021 02:50:00 5.6 C 96 % 5.01 C
Sensor: Nr:Datum:Temp:Feuchte:Taupunkt:
Aussen-T/F 1476 13-10-2021 02:55:00 5.6 C 96 % 5.01 C
1477 13-10-2021 03:00:00 5.6 C 96 % 5.01 C
1478 13-10-2021 03:05:00 5.4 C 96 % 4.81 C
1479 13-10-2021 03:10:00 5.4 C 96 % 4.81 C
1480 13-10-2021 03:15:00 5.4 C 96 % 4.81 C
1481 13-10-2021 03:20:00 5.4 C 96 % 4.81 C
1482 13-10-2021 03:25:00 5.4 C 96 % 4.81 C
1483 13-10-2021 03:30:00 5.6 C 96 % 5.01 C
1484 13-10-2021 03:35:00 5.6 C 96 % 5.01 C
1485 13-10-2021 03:40:00 5.7 C 96 % 5.11 C
1486 13-10-2021 03:45:00 5.7 C 97 % 5.26 C
1487 13-10-2021 03:50:00 5.8 C 97 % 5.36 C
1488 13-10-2021 03:55:00 5.8 C 97 % 5.36 C
1489 13-10-2021 04:00:00 5.8 C 97 % 5.36 C
1490 13-10-2021 04:05:00 5.8 C 97 % 5.36 C
1491 13-10-2021 04:10:00 5.7 C 97 % 5.26 C
1492 13-10-2021 04:15:00 5.7 C 97 % 5.26 C
1493 13-10-2021 04:20:00 5.6 C 96 % 5.01 C
1494 13-10-2021 04:25:00 5.6 C 96 % 5.01 C
1495 13-10-2021 04:30:00 5.6 C 96 % 5.01 C
1496 13-10-2021 04:35:00 5.6 C 96 % 5.01 C
1497 13-10-2021 04:40:00 5.6 C 96 % 5.01 C
1498 13-10-2021 04:45:00 5.6 C 96 % 5.01 C
1499 13-10-2021 04:50:00 5.7 C 97 % 5.26 C
1500 13-10-2021 04:55:00 5.7 C 97 % 5.26 C
Sensor: Nr:Datum:Temp:Feuchte:Taupunkt:
Aussen-T/F 1501 13-10-2021 05:00:00 5.8 C 97 % 5.36 C
1502 13-10-2021 05:05:00 5.9 C 97 % 5.46 C
1503 13-10-2021 05:10:00 5.9 C 97 % 5.46 C
1504 13-10-2021 05:15:00 6 C 97 % 5.56 C
1505 13-10-2021 05:20:00 6.1 C 97 % 5.66 C
1506 13-10-2021 05:25:00 6.2 C 97 % 5.76 C
1507 13-10-2021 05:30:00 6.2 C 97 % 5.76 C
1508 13-10-2021 05:35:00 6.2 C 97 % 5.76 C
1509 13-10-2021 05:40:00 6.3 C 97 % 5.86 C
1510 13-10-2021 05:45:00 6.3 C 97 % 5.86 C
1511 13-10-2021 05:50:00 6.3 C 97 % 5.86 C
1512 13-10-2021 05:55:00 6.3 C 97 % 5.86 C
1513 13-10-2021 06:00:00 6.3 C 97 % 5.86 C
1514 13-10-2021 06:05:00 6.3 C 97 % 5.86 C
1515 13-10-2021 06:10:00 6.3 C 97 % 5.86 C
1516 13-10-2021 06:15:00 6.3 C 97 % 5.86 C
1517 13-10-2021 06:20:00 6.3 C 97 % 5.86 C
1518 13-10-2021 06:25:00 6.2 C 97 % 5.76 C
1519 13-10-2021 06:30:00 6.3 C 97 % 5.86 C
1520 13-10-2021 06:35:00 6.3 C 97 % 5.86 C
1521 13-10-2021 06:40:00 6.3 C 97 % 5.86 C
1522 13-10-2021 06:45:00 6.3 C 97 % 5.86 C
1523 13-10-2021 06:50:00 6.3 C 97 % 5.86 C
1524 13-10-2021 06:55:00 6.3 C 97 % 5.86 C
1525 13-10-2021 07:00:00 6.3 C 97 % 5.86 C
Sensor: Nr:Datum:Temp:Feuchte:Taupunkt:
Aussen-T/F 1526 13-10-2021 07:05:00 6.3 C 97 % 5.86 C
1527 13-10-2021 07:10:00 6.3 C 97 % 5.86 C
1528 13-10-2021 07:15:00 6.3 C 97 % 5.86 C
1529 13-10-2021 07:20:00 6.4 C 97 % 5.96 C
1530 13-10-2021 07:25:00 6.4 C 97 % 5.96 C
1531 13-10-2021 07:30:00 6.4 C 97 % 5.96 C
1532 13-10-2021 07:35:00 6.4 C 97 % 5.96 C
1533 13-10-2021 07:40:00 6.4 C 97 % 5.96 C
1534 13-10-2021 07:45:00 6.4 C 97 % 5.96 C
1535 13-10-2021 07:50:00 6.4 C 97 % 5.96 C
1536 13-10-2021 07:55:00 6.4 C 97 % 5.96 C
1537 13-10-2021 08:00:00 6.4 C 97 % 5.96 C
1538 13-10-2021 08:05:00 6.5 C 97 % 6.06 C
1539 13-10-2021 08:10:00 6.5 C 97 % 6.06 C
1540 13-10-2021 08:15:00 6.6 C 97 % 6.16 C
1541 13-10-2021 08:20:00 6.6 C 97 % 6.16 C
1542 13-10-2021 08:25:00 6.6 C 97 % 6.16 C
1543 13-10-2021 08:30:00 6.6 C 97 % 6.16 C
1544 13-10-2021 08:35:00 6.7 C 97 % 6.26 C
1545 13-10-2021 08:40:00 6.7 C 97 % 6.26 C
1546 13-10-2021 08:45:00 6.7 C 97 % 6.26 C
1547 13-10-2021 08:50:00 6.7 C 97 % 6.26 C
1548 13-10-2021 08:55:00 6.8 C 97 % 6.36 C
1549 13-10-2021 09:00:00 6.8 C 97 % 6.36 C
1550 13-10-2021 09:05:00 6.8 C 97 % 6.36 C
Sensor: Nr:Datum:Temp:Feuchte:Taupunkt:
Aussen-T/F 1551 13-10-2021 09:10:00 6.9 C 97 % 6.46 C
1552 13-10-2021 09:15:00 6.9 C 97 % 6.46 C
1553 13-10-2021 09:20:00 7 C 97 % 6.56 C
1554 13-10-2021 09:25:00 7.1 C 97 % 6.66 C
1555 13-10-2021 09:30:00 7.2 C 97 % 6.76 C
1556 13-10-2021 09:35:00 7.2 C 97 % 6.76 C
1557 13-10-2021 09:40:00 7.2 C 97 % 6.76 C
1558 13-10-2021 09:45:00 7.3 C 97 % 6.86 C
1559 13-10-2021 09:50:00 7.3 C 97 % 6.86 C
1560 13-10-2021 09:55:00 7.3 C 97 % 6.86 C
1561 13-10-2021 10:00:00 7.4 C 97 % 6.96 C
1562 13-10-2021 10:05:00 7.5 C 97 % 7.06 C
1563 13-10-2021 10:10:00 7.6 C 97 % 7.16 C
1564 13-10-2021 10:15:00 7.7 C 97 % 7.25 C
1565 13-10-2021 10:20:00 7.7 C 97 % 7.25 C
1566 13-10-2021 10:25:00 7.8 C 97 % 7.35 C
1567 13-10-2021 10:30:00 7.8 C 97 % 7.35 C
1568 13-10-2021 10:35:00 7.9 C 97 % 7.45 C
1569 13-10-2021 10:40:00 7.9 C 97 % 7.45 C
1570 13-10-2021 10:45:00 8 C 97 % 7.55 C
1571 13-10-2021 10:50:00 8.1 C 97 % 7.65 C
1572 13-10-2021 10:55:00 8.1 C 97 % 7.65 C
1573 13-10-2021 11:00:00 8.2 C 97 % 7.75 C
1574 13-10-2021 11:05:00 8.3 C 97 % 7.85 C
1575 13-10-2021 11:10:00 8.4 C 97 % 7.95 C
Sensor: Nr:Datum:Temp:Feuchte:Taupunkt:
Aussen-T/F 1576 13-10-2021 11:15:00 8.6 C 97 % 8.15 C
1577 13-10-2021 11:20:00 8.7 C 97 % 8.25 C
1578 13-10-2021 11:25:00 8.8 C 97 % 8.35 C
1579 13-10-2021 11:30:00 8.9 C 97 % 8.45 C
1580 13-10-2021 11:35:00 8.9 C 97 % 8.45 C
1581 13-10-2021 11:40:00 8.9 C 97 % 8.45 C
1582 13-10-2021 11:45:00 8.9 C 97 % 8.45 C
1583 13-10-2021 11:50:00 9.1 C 97 % 8.65 C
1584 13-10-2021 11:55:00 9.1 C 97 % 8.65 C
1585 13-10-2021 12:00:00 9.1 C 97 % 8.65 C
1586 13-10-2021 12:05:00 9.2 C 97 % 8.75 C
1587 13-10-2021 12:10:00 9.3 C 97 % 8.85 C
1588 13-10-2021 12:15:00 9.5 C 97 % 9.05 C
1589 13-10-2021 12:20:00 9.5 C 97 % 9.05 C
1590 13-10-2021 12:25:00 9.5 C 96 % 8.89 C
1591 13-10-2021 12:30:00 9.7 C 96 % 9.09 C
1592 13-10-2021 12:35:00 9.7 C 96 % 9.09 C
1593 13-10-2021 12:40:00 9.8 C 96 % 9.19 C
1594 13-10-2021 12:45:00 9.8 C 96 % 9.19 C
1595 13-10-2021 12:50:00 10 C 96 % 9.39 C
1596 13-10-2021 12:55:00 10.1 C 95 % 9.34 C
1597 13-10-2021 13:00:00 10.1 C 95 % 9.34 C
1598 13-10-2021 13:05:00 10.1 C 95 % 9.34 C
1599 13-10-2021 13:10:00 10.2 C 95 % 9.44 C
1600 13-10-2021 13:15:00 10.2 C 95 % 9.44 C
Sensor: Nr:Datum:Temp:Feuchte:Taupunkt:
Aussen-T/F 1601 13-10-2021 13:20:00 10.3 C 95 % 9.54 C
1602 13-10-2021 13:25:00 10.4 C 94 % 9.48 C
1603 13-10-2021 13:30:00 10.4 C 94 % 9.48 C
1604 13-10-2021 13:35:00 10.5 C 93 % 9.42 C
1605 13-10-2021 13:40:00 10.7 C 93 % 9.62 C
1606 13-10-2021 13:45:00 10.7 C 93 % 9.62 C
1607 13-10-2021 13:50:00 10.7 C 93 % 9.62 C
1608 13-10-2021 13:55:00 10.8 C 92 % 9.55 C
1609 13-10-2021 14:00:00 10.8 C 92 % 9.55 C
1610 13-10-2021 14:05:00 10.9 C 91 % 9.49 C
1611 13-10-2021 14:10:00 11.1 C 91 % 9.69 C
1612 13-10-2021 14:15:00 11.1 C 91 % 9.69 C
1613 13-10-2021 14:20:00 11.2 C 90 % 9.62 C
1614 13-10-2021 14:25:00 11.3 C 90 % 9.72 C
1615 13-10-2021 14:30:00 11.5 C 88 % 9.58 C
1616 13-10-2021 14:35:00 11.7 C 88 % 9.78 C
1617 13-10-2021 14:40:00 11.8 C 89 % 10.05 C
1618 13-10-2021 14:45:00 11.8 C 87 % 9.71 C
1619 13-10-2021 14:50:00 11.8 C 87 % 9.71 C
1620 13-10-2021 14:55:00 11.9 C 87 % 9.81 C
1621 13-10-2021 15:00:00 11.9 C 87 % 9.81 C
1622 13-10-2021 15:05:00 11.9 C 87 % 9.81 C
1623 13-10-2021 15:10:00 11.9 C 87 % 9.81 C
1624 13-10-2021 15:15:00 11.9 C 86 % 9.64 C
1625 13-10-2021 15:20:00 11.9 C 87 % 9.81 C
Sensor: Nr:Datum:Temp:Feuchte:Taupunkt:
Aussen-T/F 1626 13-10-2021 15:25:00 12 C 86 % 9.73 C
1627 13-10-2021 15:30:00 11.9 C 86 % 9.64 C
1628 13-10-2021 15:35:00 11.9 C 85 % 9.46 C
1629 13-10-2021 15:40:00 12.1 C 87 % 10 C
1630 13-10-2021 15:45:00 12.1 C 87 % 10 C
1631 13-10-2021 15:50:00 12.1 C 88 % 10.17 C
1632 13-10-2021 15:55:00 12.2 C 89 % 10.44 C
1633 13-10-2021 16:00:00 12.2 C 89 % 10.44 C
1634 13-10-2021 16:05:00 12.1 C 88 % 10.17 C
1635 13-10-2021 16:10:00 12.1 C 88 % 10.17 C
1636 13-10-2021 16:15:00 12 C 86 % 9.73 C
1637 13-10-2021 16:20:00 11.9 C 82 % 8.93 C
1638 13-10-2021 16:25:00 11.9 C 82 % 8.93 C
1639 13-10-2021 16:30:00 11.9 C 83 % 9.11 C
1640 13-10-2021 16:35:00 11.9 C 84 % 9.29 C
1641 13-10-2021 16:40:00 11.6 C 86 % 9.34 C
1642 13-10-2021 16:45:00 11.4 C 87 % 9.32 C
1643 13-10-2021 16:50:00 11.3 C 88 % 9.39 C
1644 13-10-2021 16:55:00 11.2 C 89 % 9.46 C
1645 13-10-2021 17:00:00 11.2 C 90 % 9.62 C
1646 13-10-2021 17:05:00 11.2 C 90 % 9.62 C
1647 13-10-2021 17:10:00 11.2 C 91 % 9.79 C
1648 13-10-2021 17:15:00 11.2 C 91 % 9.79 C
1649 13-10-2021 17:20:00 11.1 C 91 % 9.69 C
1650 13-10-2021 17:25:00 11.1 C 91 % 9.69 C
Sensor: Nr:Datum:Temp:Feuchte:Taupunkt:
Aussen-T/F 1651 13-10-2021 17:30:00 11.1 C 91 % 9.69 C
1652 13-10-2021 17:35:00 11 C 92 % 9.75 C
1653 13-10-2021 17:40:00 10.9 C 92 % 9.65 C
1654 13-10-2021 17:45:00 10.8 C 92 % 9.55 C
1655 13-10-2021 17:50:00 10.7 C 92 % 9.45 C
1656 13-10-2021 17:55:00 10.6 C 92 % 9.36 C
1657 13-10-2021 18:00:00 10.4 C 92 % 9.16 C
1658 13-10-2021 18:05:00 10.4 C 92 % 9.16 C
1659 13-10-2021 18:10:00 10.4 C 92 % 9.16 C
1660 13-10-2021 18:15:00 10.3 C 92 % 9.06 C
1661 13-10-2021 18:20:00 10.2 C 92 % 8.96 C
1662 13-10-2021 18:25:00 10.1 C 92 % 8.86 C
1663 13-10-2021 18:30:00 10.1 C 92 % 8.86 C
1664 13-10-2021 18:35:00 9.9 C 92 % 8.66 C
1665 13-10-2021 18:40:00 9.8 C 92 % 8.56 C
1666 13-10-2021 18:45:00 9.6 C 92 % 8.37 C
1667 13-10-2021 18:50:00 9.5 C 92 % 8.27 C
1668 13-10-2021 18:55:00 9.4 C 92 % 8.17 C
1669 13-10-2021 19:00:00 9.3 C 93 % 8.23 C
1670 13-10-2021 19:05:00 9.2 C 93 % 8.13 C
1671 13-10-2021 19:10:00 9.1 C 93 % 8.03 C
1672 13-10-2021 19:15:00 9 C 93 % 7.93 C
1673 13-10-2021 19:20:00 8.9 C 93 % 7.83 C
1674 13-10-2021 19:25:00 8.8 C 93 % 7.73 C
1675 13-10-2021 19:30:00 8.8 C 93 % 7.73 C
Sensor: Nr:Datum:Temp:Feuchte:Taupunkt:
Aussen-T/F 1676 13-10-2021 19:35:00 8.8 C 94 % 7.89 C
1677 13-10-2021 19:40:00 8.8 C 94 % 7.89 C
1678 13-10-2021 19:45:00 8.8 C 94 % 7.89 C
1679 13-10-2021 19:50:00 8.8 C 94 % 7.89 C
1680 13-10-2021 19:55:00 8.8 C 94 % 7.89 C
1681 13-10-2021 20:00:00 8.8 C 94 % 7.89 C
1682 13-10-2021 20:05:00 8.8 C 94 % 7.89 C
1683 13-10-2021 20:10:00 8.8 C 94 % 7.89 C
1684 13-10-2021 20:15:00 8.8 C 95 % 8.04 C
1685 13-10-2021 20:20:00 8.8 C 95 % 8.04 C
1686 13-10-2021 20:25:00 8.8 C 95 % 8.04 C
1687 13-10-2021 20:30:00 8.8 C 95 % 8.04 C
1688 13-10-2021 20:35:00 8.8 C 95 % 8.04 C
1689 13-10-2021 20:40:00 8.8 C 95 % 8.04 C
1690 13-10-2021 20:45:00 8.9 C 95 % 8.14 C
1691 13-10-2021 20:50:00 8.9 C 95 % 8.14 C
1692 13-10-2021 20:55:00 8.9 C 95 % 8.14 C
1693 13-10-2021 21:00:00 9 C 95 % 8.24 C
1694 13-10-2021 21:05:00 9 C 95 % 8.24 C
1695 13-10-2021 21:10:00 9 C 95 % 8.24 C
1696 13-10-2021 21:15:00 9 C 95 % 8.24 C
1697 13-10-2021 21:20:00 8.9 C 95 % 8.14 C
1698 13-10-2021 21:25:00 8.9 C 95 % 8.14 C
1699 13-10-2021 21:30:00 8.9 C 95 % 8.14 C
1700 13-10-2021 21:35:00 8.9 C 95 % 8.14 C
Sensor: Nr:Datum:Temp:Feuchte:Taupunkt:
Aussen-T/F 1701 13-10-2021 21:40:00 8.8 C 95 % 8.04 C
1702 13-10-2021 21:45:00 8.8 C 95 % 8.04 C
1703 13-10-2021 21:50:00 8.8 C 95 % 8.04 C
1704 13-10-2021 21:55:00 8.8 C 96 % 8.2 C
1705 13-10-2021 22:00:00 8.8 C 96 % 8.2 C
1706 13-10-2021 22:05:00 8.8 C 96 % 8.2 C
1707 13-10-2021 22:10:00 8.8 C 96 % 8.2 C
1708 13-10-2021 22:15:00 8.8 C 96 % 8.2 C
1709 13-10-2021 22:20:00 8.8 C 96 % 8.2 C
1710 13-10-2021 22:25:00 8.7 C 96 % 8.1 C
1711 13-10-2021 22:30:00 8.7 C 96 % 8.1 C
1712 13-10-2021 22:35:00 8.7 C 95 % 7.94 C
1713 13-10-2021 22:40:00 8.7 C 95 % 7.94 C
1714 13-10-2021 22:45:00 8.7 C 96 % 8.1 C
1715 13-10-2021 22:50:00 8.7 C 96 % 8.1 C
1716 13-10-2021 22:55:00 8.7 C 96 % 8.1 C
1717 13-10-2021 23:00:00 8.7 C 96 % 8.1 C
1718 13-10-2021 23:05:00 8.8 C 96 % 8.2 C
1719 13-10-2021 23:10:00 8.8 C 96 % 8.2 C
1720 13-10-2021 23:15:00 8.8 C 96 % 8.2 C
1721 13-10-2021 23:20:00 8.8 C 96 % 8.2 C
1722 13-10-2021 23:25:00 8.8 C 96 % 8.2 C
1723 13-10-2021 23:30:00 8.8 C 96 % 8.2 C
1724 13-10-2021 23:35:00 8.8 C 96 % 8.2 C
1725 13-10-2021 23:40:00 8.8 C 96 % 8.2 C
Sensor: Nr:Datum:Temp:Feuchte:Taupunkt:
Aussen-T/F 1726 13-10-2021 23:45:00 8.8 C 96 % 8.2 C
1727 13-10-2021 23:50:00 8.8 C 96 % 8.2 C
1728 13-10-2021 23:55:00 8.8 C 96 % 8.2 C
1729 14-10-2021 00:00:00 8.8 C 96 % 8.2 C
1730 14-10-2021 00:05:00 8.8 C 96 % 8.2 C
1731 14-10-2021 00:10:00 8.8 C 96 % 8.2 C
1732 14-10-2021 00:15:00 8.8 C 96 % 8.2 C
1733 14-10-2021 00:20:00 8.8 C 96 % 8.2 C
1734 14-10-2021 00:25:00 8.8 C 96 % 8.2 C
1735 14-10-2021 00:30:00 8.8 C 96 % 8.2 C
1736 14-10-2021 00:35:00 8.8 C 96 % 8.2 C
1737 14-10-2021 00:40:00 8.8 C 96 % 8.2 C
1738 14-10-2021 00:45:00 8.8 C 96 % 8.2 C
1739 14-10-2021 00:50:00 8.9 C 96 % 8.3 C
1740 14-10-2021 00:55:00 8.9 C 96 % 8.3 C
1741 14-10-2021 01:00:00 8.9 C 96 % 8.3 C
1742 14-10-2021 01:05:00 8.9 C 96 % 8.3 C
1743 14-10-2021 01:10:00 8.9 C 96 % 8.3 C
1744 14-10-2021 01:15:00 8.9 C 96 % 8.3 C
1745 14-10-2021 01:20:00 8.9 C 96 % 8.3 C
1746 14-10-2021 01:25:00 8.9 C 96 % 8.3 C
1747 14-10-2021 01:30:00 8.9 C 96 % 8.3 C
1748 14-10-2021 01:35:00 8.9 C 96 % 8.3 C
1749 14-10-2021 01:40:00 8.9 C 96 % 8.3 C
1750 14-10-2021 01:45:00 8.9 C 96 % 8.3 C
Sensor: Nr:Datum:Temp:Feuchte:Taupunkt:
Aussen-T/F 1751 14-10-2021 01:50:00 8.9 C 96 % 8.3 C
1752 14-10-2021 01:55:00 9 C 96 % 8.4 C
1753 14-10-2021 02:00:00 9 C 96 % 8.4 C
1754 14-10-2021 02:05:00 8.9 C 96 % 8.3 C
1755 14-10-2021 02:10:00 8.9 C 96 % 8.3 C
1756 14-10-2021 02:15:00 9 C 96 % 8.4 C
1757 14-10-2021 02:20:00 8.9 C 96 % 8.3 C
1758 14-10-2021 02:25:00 8.9 C 96 % 8.3 C
1759 14-10-2021 02:30:00 8.9 C 96 % 8.3 C
1760 14-10-2021 02:35:00 8.9 C 96 % 8.3 C
1761 14-10-2021 02:40:00 8.9 C 96 % 8.3 C
1762 14-10-2021 02:45:00 8.9 C 96 % 8.3 C
1763 14-10-2021 02:50:00 8.9 C 96 % 8.3 C
1764 14-10-2021 02:55:00 8.9 C 96 % 8.3 C
1765 14-10-2021 03:00:00 8.9 C 96 % 8.3 C
1766 14-10-2021 03:05:00 8.9 C 96 % 8.3 C
1767 14-10-2021 03:10:00 8.9 C 96 % 8.3 C
1768 14-10-2021 03:15:00 8.9 C 96 % 8.3 C
1769 14-10-2021 03:20:00 8.9 C 96 % 8.3 C
1770 14-10-2021 03:25:00 8.8 C 96 % 8.2 C
1771 14-10-2021 03:30:00 8.8 C 96 % 8.2 C
1772 14-10-2021 03:35:00 8.8 C 96 % 8.2 C
1773 14-10-2021 03:40:00 8.8 C 96 % 8.2 C
1774 14-10-2021 03:45:00 8.8 C 96 % 8.2 C
1775 14-10-2021 03:50:00 8.8 C 96 % 8.2 C
Sensor: Nr:Datum:Temp:Feuchte:Taupunkt:
Aussen-T/F 1776 14-10-2021 03:55:00 8.8 C 96 % 8.2 C
1777 14-10-2021 04:00:00 8.9 C 96 % 8.3 C
1778 14-10-2021 04:05:00 8.9 C 96 % 8.3 C
1779 14-10-2021 04:10:00 8.9 C 96 % 8.3 C
1780 14-10-2021 04:15:00 8.9 C 96 % 8.3 C
1781 14-10-2021 04:20:00 8.9 C 96 % 8.3 C
1782 14-10-2021 04:25:00 8.9 C 96 % 8.3 C
1783 14-10-2021 04:30:00 9 C 96 % 8.4 C
1784 14-10-2021 04:35:00 9 C 96 % 8.4 C
1785 14-10-2021 04:40:00 9 C 96 % 8.4 C
1786 14-10-2021 04:45:00 9 C 95 % 8.24 C
1787 14-10-2021 04:50:00 9 C 95 % 8.24 C
1788 14-10-2021 04:55:00 9 C 95 % 8.24 C
1789 14-10-2021 05:00:00 9 C 95 % 8.24 C
1790 14-10-2021 05:05:00 9 C 95 % 8.24 C
1791 14-10-2021 05:10:00 9.1 C 95 % 8.34 C
1792 14-10-2021 05:15:00 9.1 C 95 % 8.34 C
1793 14-10-2021 05:20:00 9.1 C 95 % 8.34 C
1794 14-10-2021 05:25:00 9.1 C 95 % 8.34 C
1795 14-10-2021 05:30:00 9.1 C 95 % 8.34 C
1796 14-10-2021 05:35:00 9.2 C 95 % 8.44 C
1797 14-10-2021 05:40:00 9.2 C 95 % 8.44 C
1798 14-10-2021 05:45:00 9.2 C 95 % 8.44 C
1799 14-10-2021 05:50:00 9.2 C 95 % 8.44 C
1800 14-10-2021 05:55:00 9.2 C 95 % 8.44 C
Sensor: Nr:Datum:Temp:Feuchte:Taupunkt:
Aussen-T/F 1801 14-10-2021 06:00:00 9.2 C 95 % 8.44 C
1802 14-10-2021 06:05:00 9.2 C 95 % 8.44 C
1803 14-10-2021 06:10:00 9.2 C 95 % 8.44 C
1804 14-10-2021 06:15:00 9.2 C 94 % 8.29 C
1805 14-10-2021 06:20:00 9.3 C 95 % 8.54 C
1806 14-10-2021 06:25:00 9.3 C 94 % 8.39 C
1807 14-10-2021 06:30:00 9.3 C 94 % 8.39 C
1808 14-10-2021 06:35:00 9.3 C 94 % 8.39 C
1809 14-10-2021 06:40:00 9.3 C 94 % 8.39 C
1810 14-10-2021 06:45:00 9.3 C 94 % 8.39 C
1811 14-10-2021 06:50:00 9.3 C 94 % 8.39 C
1812 14-10-2021 06:55:00 9.3 C 94 % 8.39 C
1813 14-10-2021 07:00:00 9.3 C 94 % 8.39 C
1814 14-10-2021 07:05:00 9.3 C 94 % 8.39 C
1815 14-10-2021 07:10:00 9.3 C 94 % 8.39 C
1816 14-10-2021 07:15:00 9.3 C 94 % 8.39 C
1817 14-10-2021 07:20:00 9.3 C 94 % 8.39 C
1818 14-10-2021 07:25:00 9.3 C 94 % 8.39 C
1819 14-10-2021 07:30:00 9.3 C 94 % 8.39 C
1820 14-10-2021 07:35:00 9.3 C 94 % 8.39 C
1821 14-10-2021 07:40:00 9.3 C 94 % 8.39 C
1822 14-10-2021 07:45:00 9.3 C 93 % 8.23 C
1823 14-10-2021 07:50:00 9.4 C 93 % 8.33 C
1824 14-10-2021 07:55:00 9.4 C 93 % 8.33 C
1825 14-10-2021 08:00:00 9.4 C 94 % 8.48 C
Sensor: Nr:Datum:Temp:Feuchte:Taupunkt:
Aussen-T/F 1826 14-10-2021 08:05:00 9.4 C 94 % 8.48 C
1827 14-10-2021 08:10:00 9.4 C 94 % 8.48 C
1828 14-10-2021 08:15:00 9.4 C 94 % 8.48 C
1829 14-10-2021 08:20:00 9.4 C 94 % 8.48 C
1830 14-10-2021 08:25:00 9.4 C 94 % 8.48 C
1831 14-10-2021 08:30:00 9.4 C 94 % 8.48 C
1832 14-10-2021 08:35:00 9.4 C 94 % 8.48 C
1833 14-10-2021 08:40:00 9.4 C 94 % 8.48 C
1834 14-10-2021 08:45:00 9.4 C 94 % 8.48 C
1835 14-10-2021 08:50:00 9.4 C 94 % 8.48 C
1836 14-10-2021 08:55:00 9.4 C 94 % 8.48 C
1837 14-10-2021 09:00:00 9.4 C 94 % 8.48 C
1838 14-10-2021 09:05:00 9.5 C 94 % 8.58 C
1839 14-10-2021 09:10:00 9.5 C 94 % 8.58 C
1840 14-10-2021 09:15:00 9.6 C 94 % 8.68 C
1841 14-10-2021 09:20:00 9.6 C 94 % 8.68 C
1842 14-10-2021 09:25:00 9.6 C 94 % 8.68 C
1843 14-10-2021 09:30:00 9.6 C 94 % 8.68 C
1844 14-10-2021 09:35:00 9.7 C 94 % 8.78 C
1845 14-10-2021 09:40:00 9.7 C 94 % 8.78 C
1846 14-10-2021 09:45:00 9.8 C 94 % 8.88 C
1847 14-10-2021 09:50:00 9.9 C 93 % 8.82 C
1848 14-10-2021 09:55:00 10 C 92 % 8.76 C
1849 14-10-2021 10:00:00 10.1 C 92 % 8.86 C
1850 14-10-2021 10:05:00 10.2 C 91 % 8.8 C
Sensor: Nr:Datum:Temp:Feuchte:Taupunkt:
Aussen-T/F 1851 14-10-2021 10:10:00 10.3 C 91 % 8.9 C
1852 14-10-2021 10:15:00 10.5 C 91 % 9.09 C
1853 14-10-2021 10:20:00 10.6 C 90 % 9.03 C
1854 14-10-2021 10:25:00 10.7 C 90 % 9.13 C
1855 14-10-2021 10:30:00 10.7 C 90 % 9.13 C
1856 14-10-2021 10:35:00 10.8 C 89 % 9.06 C
1857 14-10-2021 10:40:00 10.9 C 89 % 9.16 C
1858 14-10-2021 10:45:00 10.9 C 89 % 9.16 C
1859 14-10-2021 10:50:00 10.9 C 89 % 9.16 C
1860 14-10-2021 10:55:00 10.9 C 89 % 9.16 C
1861 14-10-2021 11:00:00 11 C 89 % 9.26 C
1862 14-10-2021 11:05:00 11.1 C 88 % 9.19 C
1863 14-10-2021 11:10:00 11.1 C 88 % 9.19 C
1864 14-10-2021 11:15:00 11.2 C 88 % 9.29 C
1865 14-10-2021 11:20:00 11.2 C 89 % 9.46 C
1866 14-10-2021 11:25:00 11.2 C 89 % 9.46 C
1867 14-10-2021 11:30:00 11.3 C 89 % 9.55 C
1868 14-10-2021 11:35:00 11.4 C 88 % 9.49 C
1869 14-10-2021 11:40:00 11.4 C 88 % 9.49 C
1870 14-10-2021 11:45:00 11.5 C 88 % 9.58 C
1871 14-10-2021 11:50:00 11.5 C 88 % 9.58 C
1872 14-10-2021 11:55:00 11.6 C 88 % 9.68 C
1873 14-10-2021 12:00:00 11.6 C 88 % 9.68 C
1874 14-10-2021 12:05:00 11.6 C 88 % 9.68 C
1875 14-10-2021 12:10:00 11.7 C 88 % 9.78 C
Sensor: Nr:Datum:Temp:Feuchte:Taupunkt:
Aussen-T/F 1876 14-10-2021 12:15:00 11.7 C 88 % 9.78 C
1877 14-10-2021 12:20:00 11.8 C 87 % 9.71 C
1878 14-10-2021 12:25:00 11.8 C 87 % 9.71 C
1879 14-10-2021 12:30:00 11.9 C 88 % 9.98 C
1880 14-10-2021 12:35:00 11.9 C 87 % 9.81 C
1881 14-10-2021 12:40:00 12 C 87 % 9.91 C
1882 14-10-2021 12:45:00 12.1 C 87 % 10 C
1883 14-10-2021 12:50:00 12.2 C 87 % 10.1 C
1884 14-10-2021 12:55:00 12.2 C 87 % 10.1 C
1885 14-10-2021 13:00:00 12.3 C 87 % 10.2 C
1886 14-10-2021 13:05:00 12.3 C 87 % 10.2 C
1887 14-10-2021 13:10:00 12.4 C 86 % 10.13 C
1888 14-10-2021 13:15:00 12.6 C 86 % 10.32 C
1889 14-10-2021 13:20:00 12.7 C 86 % 10.42 C
1890 14-10-2021 13:25:00 12.8 C 85 % 10.34 C
1891 14-10-2021 13:30:00 13 C 85 % 10.54 C
1892 14-10-2021 13:35:00 13.2 C 84 % 10.56 C
1893 14-10-2021 13:40:00 13.4 C 84 % 10.75 C
1894 14-10-2021 13:45:00 13.6 C 84 % 10.95 C
1895 14-10-2021 13:50:00 13.6 C 83 % 10.77 C
1896 14-10-2021 13:55:00 13.7 C 83 % 10.87 C
1897 14-10-2021 14:00:00 13.7 C 84 % 11.05 C
1898 14-10-2021 14:05:00 13.8 C 83 % 10.97 C
1899 14-10-2021 14:10:00 13.9 C 83 % 11.06 C
1900 14-10-2021 14:15:00 13.9 C 83 % 11.06 C
Sensor: Nr:Datum:Temp:Feuchte:Taupunkt:
Aussen-T/F 1901 14-10-2021 14:20:00 14.1 C 84 % 11.44 C
1902 14-10-2021 14:25:00 14.1 C 82 % 11.08 C
1903 14-10-2021 14:30:00 14.2 C 83 % 11.36 C
1904 14-10-2021 14:35:00 14.2 C 83 % 11.36 C
1905 14-10-2021 14:40:00 14.3 C 83 % 11.45 C
1906 14-10-2021 14:45:00 14.3 C 83 % 11.45 C
1907 14-10-2021 14:50:00 14.3 C 83 % 11.45 C
1908 14-10-2021 14:55:00 14.3 C 83 % 11.45 C
1909 14-10-2021 15:00:00 14.2 C 84 % 11.54 C
1910 14-10-2021 15:05:00 14.1 C 84 % 11.44 C
1911 14-10-2021 15:10:00 13.9 C 84 % 11.24 C
1912 14-10-2021 15:15:00 13.9 C 85 % 11.42 C
1913 14-10-2021 15:20:00 13.8 C 85 % 11.32 C
1914 14-10-2021 15:25:00 13.7 C 85 % 11.23 C
1915 14-10-2021 15:30:00 13.7 C 85 % 11.23 C
1916 14-10-2021 15:35:00 13.7 C 87 % 11.58 C
1917 14-10-2021 15:40:00 13.6 C 87 % 11.48 C
1918 14-10-2021 15:45:00 13.7 C 87 % 11.58 C
1919 14-10-2021 15:50:00 13.7 C 88 % 11.75 C
1920 14-10-2021 15:55:00 13.7 C 88 % 11.75 C
1921 14-10-2021 16:00:00 13.6 C 87 % 11.48 C
1922 14-10-2021 16:05:00 13.6 C 88 % 11.65 C
1923 14-10-2021 16:10:00 13.6 C 88 % 11.65 C
1924 14-10-2021 16:15:00 13.6 C 88 % 11.65 C
1925 14-10-2021 16:20:00 13.6 C 88 % 11.65 C
Sensor: Nr:Datum:Temp:Feuchte:Taupunkt:
Aussen-T/F 1926 14-10-2021 16:25:00 13.5 C 88 % 11.55 C
1927 14-10-2021 16:30:00 13.4 C 88 % 11.45 C
1928 14-10-2021 16:35:00 13.5 C 88 % 11.55 C
1929 14-10-2021 16:40:00 13.5 C 89 % 11.72 C
1930 14-10-2021 16:45:00 13.5 C 88 % 11.55 C
1931 14-10-2021 16:50:00 13.6 C 88 % 11.65 C
1932 14-10-2021 16:55:00 13.6 C 89 % 11.82 C
1933 14-10-2021 17:00:00 13.6 C 89 % 11.82 C
1934 14-10-2021 17:05:00 13.7 C 89 % 11.92 C
1935 14-10-2021 17:10:00 13.7 C 89 % 11.92 C
1936 14-10-2021 17:15:00 13.7 C 89 % 11.92 C
1937 14-10-2021 17:20:00 13.6 C 89 % 11.82 C
1938 14-10-2021 17:25:00 13.5 C 88 % 11.55 C
1939 14-10-2021 17:30:00 13.4 C 88 % 11.45 C
1940 14-10-2021 17:35:00 13.4 C 89 % 11.63 C
1941 14-10-2021 17:40:00 13.4 C 89 % 11.63 C
1942 14-10-2021 17:45:00 13.4 C 89 % 11.63 C
1943 14-10-2021 17:50:00 13.3 C 88 % 11.36 C
1944 14-10-2021 17:55:00 13.3 C 89 % 11.53 C
1945 14-10-2021 18:00:00 13.3 C 89 % 11.53 C
1946 14-10-2021 18:05:00 13.3 C 89 % 11.53 C
1947 14-10-2021 18:10:00 13.2 C 90 % 11.6 C
1948 14-10-2021 18:15:00 13.1 C 90 % 11.5 C
1949 14-10-2021 18:20:00 13 C 90 % 11.4 C
1950 14-10-2021 18:25:00 12.9 C 90 % 11.3 C
Sensor: Nr:Datum:Temp:Feuchte:Taupunkt:
Aussen-T/F 1951 14-10-2021 18:30:00 12.9 C 90 % 11.3 C
1952 14-10-2021 18:35:00 12.8 C 90 % 11.2 C
1953 14-10-2021 18:40:00 12.8 C 90 % 11.2 C
1954 14-10-2021 18:45:00 12.7 C 90 % 11.1 C
1955 14-10-2021 18:50:00 12.7 C 91 % 11.27 C
1956 14-10-2021 18:55:00 12.6 C 91 % 11.17 C
1957 14-10-2021 19:00:00 12.5 C 91 % 11.07 C
1958 14-10-2021 19:05:00 12.4 C 91 % 10.97 C
1959 14-10-2021 19:10:00 12.3 C 91 % 10.87 C
1960 14-10-2021 19:15:00 12.2 C 91 % 10.78 C
1961 14-10-2021 19:20:00 12.2 C 91 % 10.78 C
1962 14-10-2021 19:25:00 12.1 C 92 % 10.84 C
1963 14-10-2021 19:30:00 12.1 C 92 % 10.84 C
1964 14-10-2021 19:35:00 12.1 C 92 % 10.84 C
1965 14-10-2021 19:40:00 12 C 92 % 10.74 C
1966 14-10-2021 19:45:00 12 C 92 % 10.74 C
1967 14-10-2021 19:50:00 11.9 C 93 % 10.81 C
1968 14-10-2021 19:55:00 11.9 C 93 % 10.81 C
1969 14-10-2021 20:00:00 11.9 C 93 % 10.81 C
1970 14-10-2021 20:05:00 11.9 C 93 % 10.81 C
1971 14-10-2021 20:10:00 11.8 C 93 % 10.71 C
1972 14-10-2021 20:15:00 11.8 C 93 % 10.71 C
1973 14-10-2021 20:20:00 11.8 C 93 % 10.71 C
1974 14-10-2021 20:25:00 11.8 C 93 % 10.71 C
1975 14-10-2021 20:30:00 11.8 C 93 % 10.71 C
Sensor: Nr:Datum:Temp:Feuchte:Taupunkt:
Aussen-T/F 1976 14-10-2021 20:35:00 11.7 C 93 % 10.61 C
1977 14-10-2021 20:40:00 11.7 C 93 % 10.61 C
1978 14-10-2021 20:45:00 11.7 C 93 % 10.61 C
1979 14-10-2021 20:50:00 11.7 C 93 % 10.61 C
1980 14-10-2021 20:55:00 11.7 C 94 % 10.77 C
1981 14-10-2021 21:00:00 11.6 C 94 % 10.67 C
1982 14-10-2021 21:05:00 11.6 C 94 % 10.67 C
1983 14-10-2021 21:10:00 11.6 C 94 % 10.67 C
1984 14-10-2021 21:15:00 11.5 C 94 % 10.57 C
1985 14-10-2021 21:20:00 11.4 C 93 % 10.31 C
1986 14-10-2021 21:25:00 11.4 C 93 % 10.31 C
1987 14-10-2021 21:30:00 11.3 C 93 % 10.21 C
1988 14-10-2021 21:35:00 11.2 C 93 % 10.11 C
1989 14-10-2021 21:40:00 11.2 C 93 % 10.11 C
1990 14-10-2021 21:45:00 11.1 C 93 % 10.01 C
1991 14-10-2021 21:50:00 11.1 C 93 % 10.01 C
1992 14-10-2021 21:55:00 11.1 C 93 % 10.01 C
1993 14-10-2021 22:00:00 11 C 93 % 9.91 C
1994 14-10-2021 22:05:00 10.9 C 94 % 9.97 C
1995 14-10-2021 22:10:00 10.9 C 93 % 9.81 C
1996 14-10-2021 22:15:00 10.8 C 93 % 9.71 C
1997 14-10-2021 22:20:00 10.7 C 93 % 9.62 C
1998 14-10-2021 22:25:00 10.6 C 93 % 9.52 C
1999 14-10-2021 22:30:00 10.6 C 93 % 9.52 C
2000 14-10-2021 22:35:00 10.4 C 93 % 9.32 C
Sensor: Nr:Datum:Temp:Feuchte:Taupunkt:
Aussen-T/F 2001 14-10-2021 22:40:00 10.3 C 93 % 9.22 C
2002 14-10-2021 22:45:00 10.2 C 93 % 9.12 C
2003 14-10-2021 22:50:00 10.1 C 93 % 9.02 C
2004 14-10-2021 22:55:00 9.9 C 93 % 8.82 C
2005 14-10-2021 23:00:00 9.9 C 93 % 8.82 C
2006 14-10-2021 23:05:00 9.8 C 93 % 8.72 C
2007 14-10-2021 23:10:00 9.7 C 93 % 8.62 C
2008 14-10-2021 23:15:00 9.6 C 93 % 8.53 C
2009 14-10-2021 23:20:00 9.6 C 93 % 8.53 C
2010 14-10-2021 23:25:00 9.5 C 94 % 8.58 C
2011 14-10-2021 23:30:00 9.4 C 94 % 8.48 C
2012 14-10-2021 23:35:00 9.4 C 94 % 8.48 C
2013 14-10-2021 23:40:00 9.4 C 94 % 8.48 C
2014 14-10-2021 23:45:00 9.4 C 94 % 8.48 C
2015 14-10-2021 23:50:00 9.3 C 94 % 8.39 C
2016 14-10-2021 23:55:00 9.3 C 94 % 8.39 C

Legende:
   Min
   Max


Maximal/Minimal-Werte vom 08.10.2021 - 14.10.2021

Sensor Min Max Avg
Temp
(Aussen-T/F)
4 °C
11-10-2021  03:35:00
17.7 °C
08-10-2021  18:00:00
9.36 °C
Feuchte
(Aussen-T/F)
71 %
08-10-2021  16:10:00
98 %
08-10-2021  12:45:00
92.85 %
Taupunkt
(Aussen-T/F)
3.27 C
11-10-2021  03:35:00
13.93 C
08-10-2021  14:50:00
8.23 C

Die Daten stammen von einer Davis Vantage Pro 2 Wetter-Station und werden unter Linux mit der Software wview2wettercgi und aufbereitet. Alle Angaben erfolgen ohne Gewähr für ihre Vollständigkeit oder Richtigkeit.
Kontakt: Rainer Krienke krienke@uni-koblenz.de . Meine Webseiten an der Uni Koblenz oder privat.
Version: $Revision: 0.78 $